Observation data for Estelline on 05/12/2021      Previous  Date  Next       Current Mesonet Observations  Soil Data  Daily Summary Page  Observations in Plain Language
KES1 120500Z 02007KT 12/07 A3027 RMK A01 T01160070  RH  073%=      5-min Rain = 0
KES1 120501Z 02009KT 12/07 A3027 RMK A01 T01160070  RH  073%=      5-min Rain = 0
KES1 120502Z 02009KT 12/07 A3027 RMK A01 T01160070  RH  073%=      5-min Rain = 0
KES1 120503Z 02007KT 12/07 A3027 RMK A01 T01160070  RH  074%=      5-min Rain = 0
KES1 120504Z 02008KT 12/07 A3027 RMK A01 T01160070  RH  074%=      5-min Rain = 0
KES1 120505Z 01009KT 12/07 A3027 RMK A01 T01150070  RH  073%=      5-min Rain = 0
KES1 120506Z 02008KT 12/07 A3027 RMK A01 T01150069  RH  073%=      5-min Rain = 0
KES1 120507Z 02009KT 12/07 A3027 RMK A01 T01150069  RH  074%=      5-min Rain = 0
KES1 120508Z 02006KT 12/07 A3027 RMK A01 T01150070  RH  074%=      5-min Rain = 0
KES1 120509Z 02008KT 12/07 A3027 RMK A01 T01150071  RH  074%=      5-min Rain = 0
KES1 120510Z 01007KT 12/07 A3027 RMK A01 T01150071  RH  074%=      5-min Rain = 0
KES1 120511Z 02009KT 12/07 A3027 RMK A01 T01150071  RH  074%=      5-min Rain = 0
KES1 120512Z 01010KT 12/07 A3027 RMK A01 T01150070  RH  074%=      5-min Rain = 0
KES1 120513Z 02008KT 12/07 A3027 RMK A01 T01150070  RH  074%=      5-min Rain = 0
KES1 120514Z 02006KT 12/07 A3027 RMK A01 T01150070  RH  074%=      5-min Rain = 0
KES1 120515Z 01008KT 12/07 A3028 RMK A01 T01150070  RH  074%=      5-min Rain = 0
KES1 120516Z 01009KT 12/07 A3028 RMK A01 T01150071  RH  074%=      5-min Rain = 0
KES1 120517Z 01007KT 12/07 A3028 RMK A01 T01150071  RH  074%=      5-min Rain = 0
KES1 120518Z 01008KT 12/07 A3028 RMK A01 T01150071  RH  074%=      5-min Rain = 0
KES1 120519Z 01007KT 11/07 A3028 RMK A01 T01140070  RH  074%=      5-min Rain = 0
KES1 120520Z 01009KT 11/07 A3028 RMK A01 T01140070  RH  074%=      5-min Rain = 0
KES1 120521Z 02009KT 12/07 A3028 RMK A01 T01150070  RH  074%=      5-min Rain = 0
KES1 120522Z 01008KT 12/07 A3028 RMK A01 T01150070  RH  074%=      5-min Rain = 0
KES1 120523Z 01006KT 11/07 A3028 RMK A01 T01140070  RH  074%=      5-min Rain = 0
KES1 120524Z 01007KT 11/07 A3028 RMK A01 T01140071  RH  075%=      5-min Rain = 0
KES1 120525Z 01006KT 11/07 A3028 RMK A01 T01140070  RH  074%=      5-min Rain = 0
KES1 120526Z 01006KT 11/07 A3028 RMK A01 T01140071  RH  074%=      5-min Rain = 0
KES1 120527Z 01007KT 12/07 A3028 RMK A01 T01150071  RH  075%=      5-min Rain = 0
KES1 120528Z 01006KT 12/07 A3028 RMK A01 T01150071  RH  074%=      5-min Rain = 0
KES1 120529Z 02005KT 12/07 A3028 RMK A01 T01150071  RH  075%=      5-min Rain = 0
KES1 120530Z 01008KT 11/07 A3028 RMK A01 T01140071  RH  074%=      5-min Rain = 0
KES1 120531Z 01008KT 12/07 A3028 RMK A01 T01150071  RH  074%=      5-min Rain = 0
KES1 120532Z 01009KT 11/07 A3028 RMK A01 T01140070  RH  074%=      5-min Rain = 0
KES1 120533Z 02008KT 11/07 A3028 RMK A01 T01140070  RH  074%=      5-min Rain = 0
KES1 120534Z 01008KT 11/07 A3028 RMK A01 T01140070  RH  074%=      5-min Rain = 0
KES1 120535Z 01009KT 11/07 A3028 RMK A01 T01140070  RH  074%=      5-min Rain = 0
KES1 120536Z 01007KT 11/07 A3028 RMK A01 T01140070  RH  074%=      5-min Rain = 0
KES1 120537Z 01007KT 11/07 A3028 RMK A01 T01140070  RH  075%=      5-min Rain = 0
KES1 120538Z 01007KT 11/07 A3028 RMK A01 T01140071  RH  075%=      5-min Rain = 0
KES1 120539Z 01008KT 11/07 A3028 RMK A01 T01140071  RH  075%=      5-min Rain = 0
KES1 120540Z 01007KT 11/07 A3028 RMK A01 T01140071  RH  075%=      5-min Rain = 0
KES1 120541Z 00008KT 11/07 A3028 RMK A01 T01130071  RH  075%=      5-min Rain = 0
KES1 120542Z 00008KT 11/07 A3028 RMK A01 T01130071  RH  075%=      5-min Rain = 0
KES1 120543Z 01008KT 11/07 A3028 RMK A01 T01130072  RH  076%=      5-min Rain = 0
KES1 120544Z 36007KT 11/07 A3028 RMK A01 T01130071  RH  075%=      5-min Rain = 0
KES1 120545Z 01006KT 11/07 A3028 RMK A01 T01130072  RH  076%=      5-min Rain = 0
KES1 120546Z 00006KT 11/07 A3028 RMK A01 T01120072  RH  076%=      5-min Rain = 0
KES1 120547Z 36007KT 11/07 A3028 RMK A01 T01120072  RH  076%=      5-min Rain = 0
KES1 120548Z 36007KT 11/07 A3028 RMK A01 T01110072  RH  077%=      5-min Rain = 0
KES1 120549Z 00008KT 11/07 A3028 RMK A01 T01110072  RH  077%=      5-min Rain = 0
KES1 120550Z 00008KT 11/07 A3028 RMK A01 T01110071  RH  077%=      5-min Rain = 0
KES1 120551Z 00008KT 11/07 A3028 RMK A01 T01110071  RH  077%=      5-min Rain = 0
KES1 120552Z 00007KT 11/07 A3028 RMK A01 T01100071  RH  077%=      5-min Rain = 0
KES1 120553Z 00008KT 11/07 A3028 RMK A01 T01100071  RH  077%=      5-min Rain = 0
KES1 120554Z 00007KT 11/07 A3028 RMK A01 T01100071  RH  077%=      5-min Rain = 0
KES1 120555Z 00008KT 11/07 A3029 RMK A01 T01100071  RH  077%=      5-min Rain = 0
KES1 120556Z 00006KT 11/07 A3029 RMK A01 T01090071  RH  077%=      5-min Rain = 0
KES1 120557Z 00007KT 11/07 A3029 RMK A01 T01090071  RH  077%=      5-min Rain = 0
KES1 120558Z 36007KT 11/07 A3029 RMK A01 T01090071  RH  078%=      5-min Rain = 0
KES1 120559Z 35007KT 11/07 A3029 RMK A01 T01080072  RH  078%=      5-min Rain = 0
KES1 120600Z 36007KT 11/07 A3029 RMK A01 T01080071  RH  078%=      5-min Rain = 0
KES1 120601Z 35007KT 11/07 A3029 RMK A01 T01080071  RH  078%=      5-min Rain = 0
KES1 120602Z 36007KT 11/07 A3029 RMK A01 T01070072  RH  079%=      5-min Rain = 0
KES1 120603Z 36007KT 11/07 A3029 RMK A01 T01070071  RH  079%=      5-min Rain = 0
KES1 120604Z 35006KT 11/07 A3029 RMK A01 T01070072  RH  079%=      5-min Rain = 0
KES1 120605Z 36007KT 11/07 A3029 RMK A01 T01070072  RH  079%=      5-min Rain = 0
KES1 120606Z 36007KT 11/07 A3029 RMK A01 T01060071  RH  079%=      5-min Rain = 0
KES1 120607Z 36006KT 11/07 A3029 RMK A01 T01060072  RH  079%=      5-min Rain = 0
KES1 120608Z 36006KT 11/07 A3029 RMK A01 T01060072  RH  079%=      5-min Rain = 0
KES1 120609Z 36007KT 11/07 A3028 RMK A01 T01060072  RH  079%=      5-min Rain = 0
KES1 120610Z 36007KT 11/07 A3028 RMK A01 T01060072  RH  080%=      5-min Rain = 0
KES1 120611Z 36007KT 11/07 A3028 RMK A01 T01060072  RH  080%=      5-min Rain = 0
KES1 120612Z 36008KT 11/07 A3028 RMK A01 T01050071  RH  079%=      5-min Rain = 0
KES1 120613Z 36007KT 11/07 A3028 RMK A01 T01050071  RH  079%=      5-min Rain = 0
KES1 120614Z 36007KT 11/07 A3028 RMK A01 T01050071  RH  079%=      5-min Rain = 0
KES1 120615Z 00007KT 11/07 A3028 RMK A01 T01050071  RH  079%=      5-min Rain = 0
KES1 120616Z 36007KT 11/07 A3028 RMK A01 T01050072  RH  080%=      5-min Rain = 0
KES1 120617Z 00007KT 11/07 A3028 RMK A01 T01050072  RH  080%=      5-min Rain = 0
KES1 120618Z 36007KT 11/07 A3028 RMK A01 T01050071  RH  080%=      5-min Rain = 0
KES1 120619Z 36008KT 11/07 A3028 RMK A01 T01050071  RH  079%=      5-min Rain = 0
KES1 120620Z 00008KT 11/07 A3028 RMK A01 T01050070  RH  079%=      5-min Rain = 0
KES1 120621Z 35008KT 11/07 A3028 RMK A01 T01050070  RH  079%=      5-min Rain = 0
KES1 120622Z 35008KT 11/07 A3028 RMK A01 T01050070  RH  079%=      5-min Rain = 0
KES1 120623Z 36008KT 11/07 A3028 RMK A01 T01050071  RH  079%=      5-min Rain = 0
KES1 120624Z 36007KT 11/07 A3028 RMK A01 T01050071  RH  079%=      5-min Rain = 0
KES1 120625Z 36007KT 11/07 A3028 RMK A01 T01050071  RH  080%=      5-min Rain = 0
KES1 120626Z 35006KT 11/07 A3028 RMK A01 T01050072  RH  080%=      5-min Rain = 0
KES1 120627Z 35007KT 11/07 A3028 RMK A01 T01050072  RH  080%=      5-min Rain = 0
KES1 120628Z 36006KT 11/07 A3028 RMK A01 T01050072  RH  080%=      5-min Rain = 0
KES1 120629Z 35006KT 11/07 A3028 RMK A01 T01050072  RH  080%=      5-min Rain = 0
KES1 120630Z 36006KT 10/07 A3028 RMK A01 T01040072  RH  080%=      5-min Rain = 0
KES1 120631Z 36006KT 10/07 A3028 RMK A01 T01040071  RH  080%=      5-min Rain = 0
KES1 120632Z 36006KT 10/07 A3028 RMK A01 T01040071  RH  080%=      5-min Rain = 0
KES1 120633Z 00006KT 10/07 A3028 RMK A01 T01040072  RH  080%=      5-min Rain = 0
KES1 120634Z 35006KT 10/07 A3028 RMK A01 T01040071  RH  080%=      5-min Rain = 0
KES1 120635Z 36005KT 10/07 A3028 RMK A01 T01040071  RH  080%=      5-min Rain = 0
KES1 120636Z 36006KT 10/07 A3028 RMK A01 T01040072  RH  081%=      5-min Rain = 0
KES1 120637Z 36006KT 10/07 A3028 RMK A01 T01040072  RH  080%=      5-min Rain = 0
KES1 120638Z 35007KT 10/07 A3028 RMK A01 T01040072  RH  080%=      5-min Rain = 0
KES1 120639Z 36006KT 10/07 A3028 RMK A01 T01040071  RH  080%=      5-min Rain = 0
KES1 120640Z 36007KT 10/07 A3028 RMK A01 T01040071  RH  080%=      5-min Rain = 0
KES1 120641Z 35008KT 10/07 A3028 RMK A01 T01040071  RH  080%=      5-min Rain = 0
KES1 120642Z 36008KT 11/07 A3028 RMK A01 T01050070  RH  079%=      5-min Rain = 0
KES1 120643Z 36007KT 11/07 A3028 RMK A01 T01050071  RH  080%=      5-min Rain = 0
KES1 120644Z 35007KT 11/07 A3028 RMK A01 T01050071  RH  079%=      5-min Rain = 0
KES1 120645Z 35006KT 11/07 A3028 RMK A01 T01050070  RH  079%=      5-min Rain = 0
KES1 120646Z 36006KT 11/07 A3028 RMK A01 T01050071  RH  080%=      5-min Rain = 0
KES1 120647Z 00006KT 11/07 A3028 RMK A01 T01050071  RH  079%=      5-min Rain = 0
KES1 120648Z 35007KT 11/07 A3028 RMK A01 T01050070  RH  079%=      5-min Rain = 0
KES1 120649Z 35007KT 11/07 A3028 RMK A01 T01050069  RH  079%=      5-min Rain = 0
KES1 120650Z 35007KT 11/07 A3028 RMK A01 T01050070  RH  079%=      5-min Rain = 0
KES1 120651Z 36007KT 11/07 A3028 RMK A01 T01050069  RH  079%=      5-min Rain = 0
KES1 120652Z 35006KT 11/07 A3028 RMK A01 T01050069  RH  078%=      5-min Rain = 0
KES1 120653Z 35007KT 11/07 A3028 RMK A01 T01050070  RH  079%=      5-min Rain = 0
KES1 120654Z 35007KT 11/07 A3028 RMK A01 T01050069  RH  079%=      5-min Rain = 0
KES1 120655Z 36007KT 11/07 A3028 RMK A01 T01050069  RH  079%=      5-min Rain = 0
KES1 120656Z 35005KT 11/07 A3028 RMK A01 T01050069  RH  079%=      5-min Rain = 0
KES1 120657Z 35006KT 11/07 A3028 RMK A01 T01050070  RH  079%=      5-min Rain = 0
KES1 120658Z 35007KT 10/07 A3028 RMK A01 T01040069  RH  079%=      5-min Rain = 0
KES1 120659Z 35006KT 10/07 A3028 RMK A01 T01040069  RH  079%=      5-min Rain = 0
KES1 120700Z 35006KT 10/07 A3028 RMK A01 T01040069  RH  079%=      5-min Rain = 0
KES1 120701Z 35006KT 10/07 A3028 RMK A01 T01030070  RH  080%=      5-min Rain = 0
KES1 120702Z 36006KT 10/07 A3028 RMK A01 T01030069  RH  080%=      5-min Rain = 0
KES1 120703Z 35008KT 10/07 A3028 RMK A01 T01030069  RH  079%=      5-min Rain = 0
KES1 120704Z 36007KT 10/07 A3028 RMK A01 T01030068  RH  079%=      5-min Rain = 0
KES1 120705Z 35006KT 10/07 A3028 RMK A01 T01020068  RH  079%=      5-min Rain = 0
KES1 120706Z 36006KT 10/07 A3028 RMK A01 T01020068  RH  079%=      5-min Rain = 0
KES1 120707Z 36007KT 10/07 A3028 RMK A01 T01020068  RH  079%=      5-min Rain = 0
KES1 120708Z 36008KT 10/07 A3028 RMK A01 T01020067  RH  079%=      5-min Rain = 0
KES1 120709Z 00007KT 10/07 A3027 RMK A01 T01020067  RH  079%=      5-min Rain = 0
KES1 120710Z 00007KT 10/07 A3027 RMK A01 T01020067  RH  079%=      5-min Rain = 0
KES1 120711Z 00007KT 10/07 A3028 RMK A01 T01020066  RH  079%=      5-min Rain = 0
KES1 120712Z 00007KT 10/07 A3028 RMK A01 T01020066  RH  078%=      5-min Rain = 0
KES1 120713Z 01007KT 10/07 A3028 RMK A01 T01020066  RH  078%=      5-min Rain = 0
KES1 120714Z 01007KT 10/07 A3028 RMK A01 T01020066  RH  078%=      5-min Rain = 0
KES1 120715Z 00007KT 10/07 A3028 RMK A01 T01020065  RH  078%=      5-min Rain = 0
KES1 120716Z 00006KT 10/07 A3028 RMK A01 T01020066  RH  078%=      5-min Rain = 0
KES1 120717Z 36007KT 10/07 A3028 RMK A01 T01020065  RH  078%=      5-min Rain = 0
KES1 120718Z 00007KT 10/07 A3028 RMK A01 T01020065  RH  078%=      5-min Rain = 0
KES1 120719Z 36006KT 10/07 A3028 RMK A01 T01020065  RH  078%=      5-min Rain = 0
KES1 120720Z 00006KT 10/07 A3028 RMK A01 T01020065  RH  078%=      5-min Rain = 0
KES1 120721Z 36007KT 10/07 A3028 RMK A01 T01010065  RH  078%=      5-min Rain = 0
KES1 120722Z 36009KT 10/07 A3028 RMK A01 T01010065  RH  078%=      5-min Rain = 0
KES1 120723Z 36007KT 10/06 A3028 RMK A01 T01020064  RH  078%=      5-min Rain = 0
KES1 120724Z 00007KT 10/07 A3028 RMK A01 T01010065  RH  078%=      5-min Rain = 0
KES1 120725Z 00007KT 10/07 A3028 RMK A01 T01010065  RH  078%=      5-min Rain = 0
KES1 120726Z 00006KT 10/06 A3028 RMK A01 T01000064  RH  078%=      5-min Rain = 0
KES1 120727Z 36007KT 10/07 A3028 RMK A01 T01010065  RH  078%=      5-min Rain = 0
KES1 120728Z 36006KT 10/07 A3028 RMK A01 T01010065  RH  078%=      5-min Rain = 0
KES1 120729Z 35007KT 10/06 A3028 RMK A01 T01000064  RH  078%=      5-min Rain = 0
KES1 120730Z 36006KT 10/06 A3028 RMK A01 T01000064  RH  078%=      5-min Rain = 0
KES1 120731Z 35008KT 10/06 A3028 RMK A01 T01000064  RH  079%=      5-min Rain = 0
KES1 120732Z 36008KT 10/06 A3028 RMK A01 T00990064  RH  079%=      5-min Rain = 0
KES1 120733Z 35007KT 10/06 A3028 RMK A01 T00990064  RH  078%=      5-min Rain = 0
KES1 120734Z 36007KT 10/06 A3028 RMK A01 T00990064  RH  079%=      5-min Rain = 0
KES1 120735Z 36007KT 10/06 A3028 RMK A01 T00990064  RH  079%=      5-min Rain = 0
KES1 120736Z 35007KT 10/06 A3028 RMK A01 T00990063  RH  079%=      5-min Rain = 0
KES1 120737Z 35007KT 10/06 A3028 RMK A01 T00990063  RH  078%=      5-min Rain = 0
KES1 120738Z 36006KT 10/06 A3028 RMK A01 T00990064  RH  079%=      5-min Rain = 0
KES1 120739Z 36006KT 10/06 A3028 RMK A01 T00980063  RH  079%=      5-min Rain = 0
KES1 120740Z 35007KT 10/06 A3028 RMK A01 T00970063  RH  079%=      5-min Rain = 0
KES1 120741Z 36006KT 10/06 A3028 RMK A01 T00970063  RH  079%=      5-min Rain = 0
KES1 120742Z 35006KT 10/06 A3028 RMK A01 T00970063  RH  079%=      5-min Rain = 0
KES1 120743Z 36006KT 10/06 A3028 RMK A01 T00970063  RH  079%=      5-min Rain = 0
KES1 120744Z 36007KT 10/06 A3028 RMK A01 T00970063  RH  079%=      5-min Rain = 0
KES1 120745Z 36006KT 10/06 A3028 RMK A01 T00970063  RH  079%=      5-min Rain = 0
KES1 120746Z 35005KT 10/06 A3028 RMK A01 T00970063  RH  079%=      5-min Rain = 0
KES1 120747Z 35006KT 10/06 A3028 RMK A01 T00970063  RH  080%=      5-min Rain = 0
KES1 120748Z 36006KT 10/06 A3028 RMK A01 T00960063  RH  080%=      5-min Rain = 0
KES1 120749Z 35006KT 10/06 A3028 RMK A01 T00960063  RH  080%=      5-min Rain = 0
KES1 120750Z 36005KT 10/06 A3028 RMK A01 T00960063  RH  080%=      5-min Rain = 0
KES1 120751Z 36006KT 10/06 A3028 RMK A01 T00960063  RH  080%=      5-min Rain = 0
KES1 120752Z 36005KT 10/06 A3028 RMK A01 T00960063  RH  080%=      5-min Rain = 0
KES1 120753Z 35005KT 10/06 A3028 RMK A01 T00960063  RH  080%=      5-min Rain = 0
KES1 120754Z 36006KT 10/06 A3028 RMK A01 T00960062  RH  080%=      5-min Rain = 0
KES1 120755Z 36005KT 10/06 A3028 RMK A01 T00970063  RH  079%=      5-min Rain = 0
KES1 120756Z 36005KT 10/06 A3028 RMK A01 T00970063  RH  080%=      5-min Rain = 0
KES1 120757Z 35006KT 10/06 A3028 RMK A01 T00960063  RH  080%=      5-min Rain = 0
KES1 120758Z 35006KT 10/06 A3028 RMK A01 T00960063  RH  080%=      5-min Rain = 0
KES1 120759Z 35006KT 10/06 A3028 RMK A01 T00970063  RH  080%=      5-min Rain = 0
KES1 120800Z 35005KT 10/06 A3029 RMK A01 T00960063  RH  080%=      5-min Rain = 0
KES1 120801Z 35005KT 10/06 A3029 RMK A01 T00970063  RH  080%=      5-min Rain = 0
KES1 120802Z 35006KT 10/06 A3029 RMK A01 T00970063  RH  079%=      5-min Rain = 0
KES1 120803Z 35005KT 10/06 A3029 RMK A01 T00970063  RH  079%=      5-min Rain = 0
KES1 120804Z 35004KT 10/06 A3029 RMK A01 T00970063  RH  079%=      5-min Rain = 0
KES1 120805Z 35004KT 10/06 A3029 RMK A01 T00970063  RH  079%=      5-min Rain = 0
KES1 120806Z 35005KT 10/06 A3029 RMK A01 T00970063  RH  079%=      5-min Rain = 0
KES1 120807Z 35004KT 10/06 A3029 RMK A01 T00970063  RH  079%=      5-min Rain = 0
KES1 120808Z 35004KT 10/06 A3029 RMK A01 T00970064  RH  080%=      5-min Rain = 0
KES1 120809Z 35005KT 10/06 A3029 RMK A01 T00970063  RH  079%=      5-min Rain = 0
KES1 120810Z 35005KT 10/06 A3029 RMK A01 T00970062  RH  079%=      5-min Rain = 0
KES1 120811Z 35004KT 10/06 A3029 RMK A01 T00970062  RH  079%=      5-min Rain = 0
KES1 120812Z 35005KT 10/06 A3029 RMK A01 T00970063  RH  079%=      5-min Rain = 0
KES1 120813Z 34005KT 10/06 A3029 RMK A01 T00970063  RH  079%=      5-min Rain = 0
KES1 120814Z 34004KT 10/06 A3029 RMK A01 T00960061  RH  079%=      5-min Rain = 0
KES1 120815Z 35004KT 10/06 A3029 RMK A01 T00960062  RH  079%=      5-min Rain = 0
KES1 120816Z 35005KT 10/06 A3029 RMK A01 T00970062  RH  079%=      5-min Rain = 0
KES1 120817Z 35005KT 10/06 A3029 RMK A01 T00970061  RH  078%=      5-min Rain = 0
KES1 120818Z 35005KT 10/06 A3029 RMK A01 T00970061  RH  078%=      5-min Rain = 0
KES1 120819Z 34006KT 10/06 A3029 RMK A01 T00960061  RH  079%=      5-min Rain = 0
KES1 120820Z 34005KT 10/06 A3029 RMK A01 T00960061  RH  079%=      5-min Rain = 0
KES1 120821Z 34005KT 10/06 A3029 RMK A01 T00960060  RH  079%=      5-min Rain = 0
KES1 120822Z 34004KT 10/06 A3029 RMK A01 T00950060  RH  079%=      5-min Rain = 0
KES1 120823Z 33004KT 09/06 A3029 RMK A01 T00940061  RH  079%=      5-min Rain = 0
KES1 120824Z 33005KT 09/06 A3029 RMK A01 T00930060  RH  080%=      5-min Rain = 0
KES1 120825Z 32004KT 09/06 A3029 RMK A01 T00930060  RH  080%=      5-min Rain = 0
KES1 120826Z 32004KT 09/06 A303 RMK A01 T00930060  RH  080%=      5-min Rain = 0
KES1 120827Z 32005KT 09/06 A303 RMK A01 T00930060  RH  080%=      5-min Rain = 0
KES1 120828Z 31005KT 09/06 A303 RMK A01 T00920060  RH  081%=      5-min Rain = 0
KES1 120829Z 31004KT 09/06 A303 RMK A01 T00910060  RH  081%=      5-min Rain = 0
KES1 120830Z 30004KT 09/06 A303 RMK A01 T00900060  RH  081%=      5-min Rain = 0
KES1 120831Z 30004KT 09/06 A303 RMK A01 T00900060  RH  082%=      5-min Rain = 0
KES1 120832Z 30003KT 09/06 A303 RMK A01 T00900060  RH  082%=      5-min Rain = 0
KES1 120833Z 30002KT 09/06 A303 RMK A01 T00900060  RH  082%=      5-min Rain = 0
KES1 120834Z 30002KT 09/06 A303 RMK A01 T00890060  RH  082%=      5-min Rain = 0
KES1 120835Z 30002KT 09/06 A303 RMK A01 T00890060  RH  082%=      5-min Rain = 0
KES1 120836Z 30002KT 09/06 A303 RMK A01 T00880059  RH  082%=      5-min Rain = 0
KES1 120837Z 30002KT 09/06 A303 RMK A01 T00880059  RH  082%=      5-min Rain = 0
KES1 120838Z 32003KT 09/06 A303 RMK A01 T00870059  RH  082%=      5-min Rain = 0
KES1 120839Z 31003KT 09/06 A303 RMK A01 T00870059  RH  083%=      5-min Rain = 0
KES1 120840Z 31003KT 09/06 A303 RMK A01 T00870060  RH  083%=      5-min Rain = 0
KES1 120841Z 33003KT 09/06 A303 RMK A01 T00870060  RH  083%=      5-min Rain = 0
KES1 120842Z 32003KT 09/06 A303 RMK A01 T00860060  RH  084%=      5-min Rain = 0
KES1 120843Z 31003KT 09/06 A303 RMK A01 T00860060  RH  084%=      5-min Rain = 0
KES1 120844Z 31003KT 09/06 A303 RMK A01 T00860060  RH  084%=      5-min Rain = 0
KES1 120845Z 31003KT 09/06 A303 RMK A01 T00850060  RH  084%=      5-min Rain = 0
KES1 120846Z 31004KT 09/06 A303 RMK A01 T00850060  RH  084%=      5-min Rain = 0
KES1 120847Z 30004KT 08/06 A303 RMK A01 T00840059  RH  084%=      5-min Rain = 0
KES1 120848Z 30004KT 08/06 A303 RMK A01 T00840060  RH  085%=      5-min Rain = 0
KES1 120849Z 31003KT 08/06 A303 RMK A01 T00840059  RH  085%=      5-min Rain = 0
KES1 120850Z 30003KT 08/06 A303 RMK A01 T00840059  RH  085%=      5-min Rain = 0
KES1 120851Z 31002KT 08/06 A303 RMK A01 T00830059  RH  085%=      5-min Rain = 0
KES1 120852Z 32002KT 08/06 A303 RMK A01 T00830058  RH  085%=      5-min Rain = 0
KES1 120853Z 32003KT 08/06 A303 RMK A01 T00830059  RH  085%=      5-min Rain = 0
KES1 120854Z 31003KT 08/06 A303 RMK A01 T00830058  RH  084%=      5-min Rain = 0
KES1 120855Z 30004KT 08/06 A303 RMK A01 T00840058  RH  084%=      5-min Rain = 0
KES1 120856Z 31004KT 08/06 A303 RMK A01 T00830058  RH  084%=      5-min Rain = 0
KES1 120857Z 30005KT 08/06 A303 RMK A01 T00830058  RH  084%=      5-min Rain = 0
KES1 120858Z 30005KT 08/06 A303 RMK A01 T00830058  RH  084%=      5-min Rain = 0
KES1 120859Z 30005KT 08/06 A303 RMK A01 T00830057  RH  084%=      5-min Rain = 0
KES1 120900Z 31004KT 08/06 A3031 RMK A01 T00830057  RH  084%=      5-min Rain = 0
KES1 120901Z 31004KT 08/06 A3031 RMK A01 T00830058  RH  084%=      5-min Rain = 0
KES1 120902Z 31004KT 08/06 A3031 RMK A01 T00830057  RH  084%=      5-min Rain = 0
KES1 120903Z 31005KT 08/06 A3031 RMK A01 T00830057  RH  084%=      5-min Rain = 0
KES1 120904Z 31004KT 08/06 A303 RMK A01 T00820057  RH  084%=      5-min Rain = 0
KES1 120905Z 31005KT 08/06 A303 RMK A01 T00820057  RH  084%=      5-min Rain = 0
KES1 120906Z 30005KT 08/06 A3031 RMK A01 T00820057  RH  084%=      5-min Rain = 0
KES1 120907Z 31006KT 08/06 A3031 RMK A01 T00810057  RH  085%=      5-min Rain = 0
KES1 120908Z 32005KT 08/06 A3031 RMK A01 T00810057  RH  085%=      5-min Rain = 0
KES1 120909Z 31004KT 08/06 A3031 RMK A01 T00800056  RH  085%=      5-min Rain = 0
KES1 120910Z 32005KT 08/06 A3031 RMK A01 T00800056  RH  085%=      5-min Rain = 0
KES1 120911Z 32004KT 08/06 A3031 RMK A01 T00790056  RH  085%=      5-min Rain = 0
KES1 120912Z 32004KT 08/06 A3031 RMK A01 T00790056  RH  086%=      5-min Rain = 0
KES1 120913Z 32004KT 08/06 A3031 RMK A01 T00790056  RH  086%=      5-min Rain = 0
KES1 120914Z 32004KT 08/06 A3031 RMK A01 T00790056  RH  086%=      5-min Rain = 0
KES1 120915Z 32005KT 08/06 A3031 RMK A01 T00780056  RH  086%=      5-min Rain = 0
KES1 120916Z 31004KT 08/06 A3031 RMK A01 T00780056  RH  086%=      5-min Rain = 0
KES1 120917Z 32005KT 08/06 A3031 RMK A01 T00780057  RH  086%=      5-min Rain = 0
KES1 120918Z 31005KT 08/06 A3031 RMK A01 T00780056  RH  086%=      5-min Rain = 0
KES1 120919Z 32005KT 08/06 A3031 RMK A01 T00780056  RH  086%=      5-min Rain = 0
KES1 120920Z 31004KT 08/06 A3031 RMK A01 T00780056  RH  086%=      5-min Rain = 0
KES1 120921Z 31003KT 08/06 A3031 RMK A01 T00780056  RH  086%=      5-min Rain = 0
KES1 120922Z 31004KT 08/06 A3031 RMK A01 T00780056  RH  086%=      5-min Rain = 0
KES1 120923Z 32003KT 08/06 A3031 RMK A01 T00780056  RH  086%=      5-min Rain = 0
KES1 120924Z 31004KT 08/06 A3031 RMK A01 T00780056  RH  086%=      5-min Rain = 0
KES1 120925Z 31004KT 08/06 A3031 RMK A01 T00770056  RH  086%=      5-min Rain = 0
KES1 120926Z 31004KT 08/06 A3031 RMK A01 T00770056  RH  086%=      5-min Rain = 0
KES1 120927Z 31004KT 08/06 A3031 RMK A01 T00770056  RH  086%=      5-min Rain = 0
KES1 120928Z 31004KT 08/06 A3031 RMK A01 T00770056  RH  086%=      5-min Rain = 0
KES1 120929Z 32004KT 08/06 A3031 RMK A01 T00770056  RH  086%=      5-min Rain = 0
KES1 120930Z 32004KT 08/06 A3031 RMK A01 T00770056  RH  086%=      5-min Rain = 0
KES1 120931Z 32004KT 08/06 A3031 RMK A01 T00770056  RH  086%=      5-min Rain = 0
KES1 120932Z 32004KT 08/06 A3031 RMK A01 T00770056  RH  086%=      5-min Rain = 0
KES1 120933Z 33004KT 08/06 A3031 RMK A01 T00770056  RH  086%=      5-min Rain = 0
KES1 120934Z 34003KT 08/06 A3031 RMK A01 T00770056  RH  086%=      5-min Rain = 0
KES1 120935Z 34003KT 08/06 A3031 RMK A01 T00770055  RH  086%=      5-min Rain = 0
KES1 120936Z 35002KT 08/06 A3031 RMK A01 T00780056  RH  086%=      5-min Rain = 0
KES1 120937Z 00002KT 08/06 A3031 RMK A01 T00780056  RH  086%=      5-min Rain = 0
KES1 120938Z 35002KT 08/06 A3031 RMK A01 T00780055  RH  086%=      5-min Rain = 0
KES1 120939Z 33003KT 08/06 A3031 RMK A01 T00770055  RH  086%=      5-min Rain = 0
KES1 120940Z 32003KT 08/06 A3031 RMK A01 T00770055  RH  086%=      5-min Rain = 0
KES1 120941Z 31003KT 08/06 A3031 RMK A01 T00780055  RH  086%=      5-min Rain = 0
KES1 120942Z 31003KT 08/06 A3031 RMK A01 T00770055  RH  086%=      5-min Rain = 0
KES1 120943Z 30003KT 08/06 A3031 RMK A01 T00770055  RH  086%=      5-min Rain = 0
KES1 120944Z 29003KT 08/06 A3031 RMK A01 T00770055  RH  086%=      5-min Rain = 0
KES1 120945Z 29002KT 08/06 A3031 RMK A01 T00760055  RH  086%=      5-min Rain = 0
KES1 120946Z 30002KT 08/06 A3031 RMK A01 T00760055  RH  086%=      5-min Rain = 0
KES1 120947Z 29002KT 08/06 A3031 RMK A01 T00760055  RH  086%=      5-min Rain = 0
KES1 120948Z 31002KT 08/06 A3031 RMK A01 T00760055  RH  086%=      5-min Rain = 0
KES1 120949Z 31001KT 08/05 A3031 RMK A01 T00760054  RH  086%=      5-min Rain = 0
KES1 120950Z 32002KT 08/06 A3031 RMK A01 T00770055  RH  086%=      5-min Rain = 0
KES1 120951Z 31002KT 08/06 A3031 RMK A01 T00770055  RH  086%=      5-min Rain = 0
KES1 120952Z 32003KT 08/06 A3031 RMK A01 T00770055  RH  086%=      5-min Rain = 0
KES1 120953Z 31003KT 08/06 A3031 RMK A01 T00780055  RH  086%=      5-min Rain = 0
KES1 120954Z 31003KT 08/06 A3031 RMK A01 T00780055  RH  086%=      5-min Rain = 0
KES1 120955Z 31003KT 08/06 A3032 RMK A01 T00790056  RH  086%=      5-min Rain = 0
KES1 120956Z 29003KT 08/06 A3032 RMK A01 T00790056  RH  086%=      5-min Rain = 0
KES1 120957Z 29002KT 08/06 A3032 RMK A01 T00790056  RH  086%=      5-min Rain = 0
KES1 120958Z 28002KT 08/06 A3032 RMK A01 T00790056  RH  086%=      5-min Rain = 0
KES1 120959Z 27001KT 08/06 A3032 RMK A01 T00780056  RH  086%=      5-min Rain = 0
KES1 121000Z 29002KT 08/06 A3032 RMK A01 T00780056  RH  086%=      5-min Rain = 0
KES1 121001Z 29002KT 08/06 A3032 RMK A01 T00780056  RH  086%=      5-min Rain = 0
KES1 121002Z 30001KT 08/06 A3032 RMK A01 T00780056  RH  086%=      5-min Rain = 0
KES1 121003Z 31001KT 08/06 A3032 RMK A01 T00780055  RH  085%=      5-min Rain = 0
KES1 121004Z 34000KT 08/06 A3031 RMK A01 T00780055  RH  085%=      5-min Rain = 0
KES1 121005Z 09001KT 08/06 A3031 RMK A01 T00790056  RH  086%=      5-min Rain = 0
KES1 121006Z 08002KT 08/06 A3031 RMK A01 T00780057  RH  086%=      5-min Rain = 0
KES1 121007Z 09003KT 08/06 A303 RMK A01 T00770057  RH  087%=      5-min Rain = 0
KES1 121008Z 09002KT 08/06 A303 RMK A01 T00760057  RH  088%=      5-min Rain = 0
KES1 121009Z 05002KT 08/06 A303 RMK A01 T00760058  RH  088%=      5-min Rain = 0
KES1 121010Z 02002KT 08/06 A3031 RMK A01 T00760058  RH  088%=      5-min Rain = 0
KES1 121011Z 35002KT 08/06 A3031 RMK A01 T00750057  RH  088%=      5-min Rain = 0
KES1 121012Z 34003KT 08/06 A3031 RMK A01 T00760057  RH  088%=      5-min Rain = 0
KES1 121013Z 34002KT 08/06 A3031 RMK A01 T00760057  RH  087%=      5-min Rain = 0
KES1 121014Z 35002KT 08/06 A3031 RMK A01 T00780057  RH  087%=      5-min Rain = 0
KES1 121015Z 01002KT 08/06 A303 RMK A01 T00780057  RH  087%=      5-min Rain = 0
KES1 121016Z 02003KT 08/06 A303 RMK A01 T00780057  RH  087%=      5-min Rain = 0
KES1 121017Z 03003KT 08/06 A303 RMK A01 T00780057  RH  086%=      5-min Rain = 0
KES1 121018Z 04003KT 08/06 A303 RMK A01 T00780057  RH  086%=      5-min Rain = 0
KES1 121019Z 03003KT 08/06 A303 RMK A01 T00780057  RH  086%=      5-min Rain = 0
KES1 121020Z 02003KT 08/06 A303 RMK A01 T00780057  RH  086%=      5-min Rain = 0
KES1 121021Z 02003KT 08/06 A303 RMK A01 T00780056  RH  086%=      5-min Rain = 0
KES1 121022Z 01003KT 08/06 A303 RMK A01 T00780057  RH  086%=      5-min Rain = 0
KES1 121023Z 01003KT 08/06 A303 RMK A01 T00780057  RH  086%=      5-min Rain = 0
KES1 121024Z 01003KT 08/06 A303 RMK A01 T00780057  RH  086%=      5-min Rain = 0
KES1 121025Z 35002KT 08/06 A303 RMK A01 T00790057  RH  086%=      5-min Rain = 0
KES1 121026Z 35001KT 08/06 A3031 RMK A01 T00790057  RH  086%=      5-min Rain = 0
KES1 121027Z 32002KT 08/06 A3031 RMK A01 T00790057  RH  086%=      5-min Rain = 0
KES1 121028Z 33002KT 08/06 A3031 RMK A01 T00800058  RH  086%=      5-min Rain = 0
KES1 121029Z 32003KT 08/06 A3031 RMK A01 T00800058  RH  086%=      5-min Rain = 0
KES1 121030Z 33003KT 08/06 A3031 RMK A01 T00810058  RH  086%=      5-min Rain = 0
KES1 121031Z 34004KT 08/06 A3031 RMK A01 T00820058  RH  085%=      5-min Rain = 0
KES1 121032Z 33004KT 08/06 A3031 RMK A01 T00830059  RH  085%=      5-min Rain = 0
KES1 121033Z 34004KT 08/06 A3031 RMK A01 T00830059  RH  085%=      5-min Rain = 0
KES1 121034Z 33004KT 08/06 A3031 RMK A01 T00840059  RH  084%=      5-min Rain = 0
KES1 121035Z 34004KT 08/06 A3031 RMK A01 T00840059  RH  084%=      5-min Rain = 0
KES1 121036Z 35005KT 08/06 A3031 RMK A01 T00840059  RH  084%=      5-min Rain = 0
KES1 121037Z 36004KT 08/06 A3031 RMK A01 T00840059  RH  084%=      5-min Rain = 0
KES1 121038Z 35004KT 08/06 A3031 RMK A01 T00840059  RH  084%=      5-min Rain = 0
KES1 121039Z 36005KT 08/06 A3031 RMK A01 T00840058  RH  084%=      5-min Rain = 0
KES1 121040Z 01003KT 09/06 A3031 RMK A01 T00850058  RH  083%=      5-min Rain = 0
KES1 121041Z 01003KT 09/06 A3031 RMK A01 T00860059  RH  083%=      5-min Rain = 0
KES1 121042Z 01004KT 09/06 A3031 RMK A01 T00860058  RH  083%=      5-min Rain = 0
KES1 121043Z 01004KT 09/06 A3031 RMK A01 T00860058  RH  083%=      5-min Rain = 0
KES1 121044Z 01005KT 09/06 A3031 RMK A01 T00850058  RH  083%=      5-min Rain = 0
KES1 121045Z 02004KT 09/06 A3031 RMK A01 T00850058  RH  083%=      5-min Rain = 0
KES1 121046Z 02004KT 09/06 A3031 RMK A01 T00850058  RH  083%=      5-min Rain = 0
KES1 121047Z 02005KT 09/06 A3031 RMK A01 T00850058  RH  083%=      5-min Rain = 0
KES1 121048Z 01005KT 09/06 A3031 RMK A01 T00850057  RH  083%=      5-min Rain = 0
KES1 121049Z 01006KT 09/06 A3031 RMK A01 T00850057  RH  083%=      5-min Rain = 0
KES1 121050Z 02006KT 09/06 A3031 RMK A01 T00850057  RH  083%=      5-min Rain = 0
KES1 121051Z 02006KT 09/06 A303 RMK A01 T00850057  RH  083%=      5-min Rain = 0
KES1 121052Z 02006KT 09/06 A303 RMK A01 T00850058  RH  083%=      5-min Rain = 0
KES1 121053Z 02006KT 09/06 A303 RMK A01 T00850057  RH  083%=      5-min Rain = 0
KES1 121054Z 03006KT 09/06 A303 RMK A01 T00850057  RH  083%=      5-min Rain = 0
KES1 121055Z 03006KT 09/06 A303 RMK A01 T00850057  RH  083%=      5-min Rain = 0
KES1 121056Z 04005KT 09/06 A303 RMK A01 T00850057  RH  083%=      5-min Rain = 0
KES1 121057Z 04005KT 09/06 A303 RMK A01 T00850057  RH  083%=      5-min Rain = 0
KES1 121058Z 04005KT 09/06 A303 RMK A01 T00850058  RH  083%=      5-min Rain = 0
KES1 121059Z 04005KT 09/06 A303 RMK A01 T00850058  RH  083%=      5-min Rain = 0
KES1 121100Z 04006KT 09/06 A303 RMK A01 T00850058  RH  083%=      5-min Rain = 0
KES1 121101Z 05005KT 09/06 A303 RMK A01 T00850058  RH  083%=      5-min Rain = 0
KES1 121102Z 04005KT 09/06 A303 RMK A01 T00860058  RH  083%=      5-min Rain = 0
KES1 121103Z 04006KT 09/06 A303 RMK A01 T00860058  RH  083%=      5-min Rain = 0
KES1 121104Z 05005KT 09/06 A303 RMK A01 T00860058  RH  082%=      5-min Rain = 0
KES1 121105Z 04005KT 09/06 A303 RMK A01 T00870058  RH  083%=      5-min Rain = 0
KES1 121106Z 03006KT 09/06 A303 RMK A01 T00870058  RH  083%=      5-min Rain = 0
KES1 121107Z 03006KT 09/06 A303 RMK A01 T00860058  RH  082%=      5-min Rain = 0
KES1 121108Z 02006KT 09/06 A3031 RMK A01 T00860058  RH  082%=      5-min Rain = 0
KES1 121109Z 02007KT 09/06 A3031 RMK A01 T00870058  RH  082%=      5-min Rain = 0
KES1 121110Z 03007KT 09/06 A3031 RMK A01 T00870057  RH  081%=      5-min Rain = 0
KES1 121111Z 03006KT 09/06 A3031 RMK A01 T00880057  RH  081%=      5-min Rain = 0
KES1 121112Z 02006KT 09/06 A3031 RMK A01 T00880057  RH  081%=      5-min Rain = 0
KES1 121113Z 02006KT 09/06 A3031 RMK A01 T00880057  RH  081%=      5-min Rain = 0
KES1 121114Z 01006KT 09/06 A3031 RMK A01 T00880058  RH  081%=      5-min Rain = 0
KES1 121115Z 02006KT 09/06 A3031 RMK A01 T00880057  RH  081%=      5-min Rain = 0
KES1 121116Z 03006KT 09/06 A3031 RMK A01 T00880057  RH  081%=      5-min Rain = 0
KES1 121117Z 02006KT 09/06 A3031 RMK A01 T00890057  RH  081%=      5-min Rain = 0
KES1 121118Z 02006KT 09/06 A3031 RMK A01 T00890057  RH  081%=      5-min Rain = 0
KES1 121119Z 01006KT 09/06 A3031 RMK A01 T00890057  RH  081%=      5-min Rain = 0
KES1 121120Z 02005KT 09/06 A3032 RMK A01 T00890057  RH  081%=      5-min Rain = 0
KES1 121121Z 03005KT 09/06 A3032 RMK A01 T00890057  RH  081%=      5-min Rain = 0
KES1 121122Z 03004KT 09/06 A3032 RMK A01 T00890057  RH  081%=      5-min Rain = 0
KES1 121123Z 04005KT 09/06 A3032 RMK A01 T00890058  RH  081%=      5-min Rain = 0
KES1 121124Z 04005KT 09/06 A3032 RMK A01 T00880057  RH  081%=      5-min Rain = 0
KES1 121125Z 03006KT 09/06 A3032 RMK A01 T00880056  RH  080%=      5-min Rain = 0
KES1 121126Z 04003KT 09/06 A3032 RMK A01 T00880056  RH  080%=      5-min Rain = 0
KES1 121127Z 04005KT 09/06 A3032 RMK A01 T00880056  RH  080%=      5-min Rain = 0
KES1 121128Z 04005KT 09/06 A3032 RMK A01 T00880056  RH  080%=      5-min Rain = 0
KES1 121129Z 03004KT 09/06 A3032 RMK A01 T00880057  RH  081%=      5-min Rain = 0
KES1 121130Z 02005KT 09/06 A3032 RMK A01 T00880057  RH  081%=      5-min Rain = 0
KES1 121131Z 02006KT 09/06 A3032 RMK A01 T00880057  RH  080%=      5-min Rain = 0
KES1 121132Z 02005KT 09/06 A3032 RMK A01 T00880056  RH  080%=      5-min Rain = 0
KES1 121133Z 03006KT 09/06 A3032 RMK A01 T00880056  RH  080%=      5-min Rain = 0
KES1 121134Z 02005KT 09/06 A3032 RMK A01 T00880056  RH  080%=      5-min Rain = 0
KES1 121135Z 02005KT 09/06 A3032 RMK A01 T00880056  RH  080%=      5-min Rain = 0
KES1 121136Z 03005KT 09/06 A3032 RMK A01 T00880056  RH  080%=      5-min Rain = 0
KES1 121137Z 03004KT 09/06 A3032 RMK A01 T00880056  RH  080%=      5-min Rain = 0
KES1 121138Z 02005KT 09/06 A3032 RMK A01 T00880056  RH  081%=      5-min Rain = 0
KES1 121139Z 03003KT 09/06 A3032 RMK A01 T00880057  RH  081%=      5-min Rain = 0
KES1 121140Z 02003KT 09/06 A3032 RMK A01 T00870056  RH  081%=      5-min Rain = 0
KES1 121141Z 02004KT 09/06 A3032 RMK A01 T00870056  RH  081%=      5-min Rain = 0
KES1 121142Z 01004KT 09/06 A3032 RMK A01 T00870056  RH  081%=      5-min Rain = 0
KES1 121143Z 01004KT 09/06 A3033 RMK A01 T00870056  RH  081%=      5-min Rain = 0
KES1 121144Z 01004KT 09/06 A3033 RMK A01 T00870056  RH  081%=      5-min Rain = 0
KES1 121145Z 01004KT 09/06 A3033 RMK A01 T00870056  RH  081%=      5-min Rain = 0
KES1 121146Z 36004KT 09/06 A3033 RMK A01 T00870057  RH  081%=      5-min Rain = 0
KES1 121147Z 35004KT 09/06 A3033 RMK A01 T00870057  RH  082%=      5-min Rain = 0
KES1 121148Z 00004KT 09/06 A3033 RMK A01 T00870058  RH  082%=      5-min Rain = 0
KES1 121149Z 01004KT 09/06 A3033 RMK A01 T00860058  RH  083%=      5-min Rain = 0
KES1 121150Z 01004KT 09/06 A3033 RMK A01 T00860058  RH  082%=      5-min Rain = 0
KES1 121151Z 00004KT 09/06 A3033 RMK A01 T00850056  RH  082%=      5-min Rain = 0
KES1 121152Z 35006KT 09/06 A3033 RMK A01 T00860056  RH  082%=      5-min Rain = 0
KES1 121153Z 00006KT 09/06 A3033 RMK A01 T00860057  RH  082%=      5-min Rain = 0
KES1 121154Z 35005KT 09/06 A3033 RMK A01 T00860057  RH  082%=      5-min Rain = 0
KES1 121155Z 36005KT 09/06 A3033 RMK A01 T00860057  RH  082%=      5-min Rain = 0
KES1 121156Z 01005KT 09/06 A3033 RMK A01 T00870058  RH  082%=      5-min Rain = 0
KES1 121157Z 01004KT 09/06 A3033 RMK A01 T00870058  RH  082%=      5-min Rain = 0
KES1 121158Z 36004KT 09/06 A3033 RMK A01 T00860057  RH  082%=      5-min Rain = 0
KES1 121159Z 00007KT 09/06 A3033 RMK A01 T00860058  RH  082%=      5-min Rain = 0
KES1 121200Z 36006KT 09/06 A3033 RMK A01 T00870057  RH  082%=      5-min Rain = 0
KES1 121201Z 35006KT 09/06 A3033 RMK A01 T00870058  RH  082%=      5-min Rain = 0
KES1 121202Z 36007KT 09/06 A3033 RMK A01 T00870058  RH  082%=      5-min Rain = 0
KES1 121203Z 36006KT 09/06 A3033 RMK A01 T00880057  RH  081%=      5-min Rain = 0
KES1 121204Z 01005KT 09/06 A3033 RMK A01 T00880058  RH  081%=      5-min Rain = 0
KES1 121205Z 01006KT 09/06 A3033 RMK A01 T00880058  RH  081%=      5-min Rain = 0
KES1 121206Z 02006KT 09/06 A3033 RMK A01 T00880058  RH  081%=      5-min Rain = 0
KES1 121207Z 01004KT 09/06 A3033 RMK A01 T00880058  RH  081%=      5-min Rain = 0
KES1 121208Z 00005KT 09/06 A3033 RMK A01 T00880058  RH  081%=      5-min Rain = 0
KES1 121209Z 01005KT 09/06 A3033 RMK A01 T00890059  RH  081%=      5-min Rain = 0
KES1 121210Z 00006KT 09/06 A3033 RMK A01 T00890059  RH  081%=      5-min Rain = 0
KES1 121211Z 36005KT 09/06 A3034 RMK A01 T00900059  RH  081%=      5-min Rain = 0
KES1 121212Z 01006KT 09/06 A3034 RMK A01 T00900059  RH  081%=      5-min Rain = 0
KES1 121213Z 36006KT 09/06 A3034 RMK A01 T00910059  RH  081%=      5-min Rain = 0
KES1 121214Z 01007KT 09/06 A3034 RMK A01 T00920059  RH  080%=      5-min Rain = 0
KES1 121215Z 01006KT 09/06 A3034 RMK A01 T00920059  RH  080%=      5-min Rain = 0
KES1 121216Z 01007KT 09/06 A3034 RMK A01 T00930060  RH  080%=      5-min Rain = 0
KES1 121217Z 01007KT 09/06 A3034 RMK A01 T00930059  RH  080%=      5-min Rain = 0
KES1 121218Z 01006KT 09/06 A3034 RMK A01 T00930059  RH  079%=      5-min Rain = 0
KES1 121219Z 01008KT 09/06 A3034 RMK A01 T00940060  RH  079%=      5-min Rain = 0
KES1 121220Z 00007KT 09/06 A3034 RMK A01 T00940059  RH  078%=      5-min Rain = 0
KES1 121221Z 01005KT 10/06 A3034 RMK A01 T00950060  RH  079%=      5-min Rain = 0
KES1 121222Z 01006KT 10/06 A3034 RMK A01 T00950060  RH  079%=      5-min Rain = 0
KES1 121223Z 01007KT 10/06 A3034 RMK A01 T00950060  RH  079%=      5-min Rain = 0
KES1 121224Z 01008KT 10/06 A3034 RMK A01 T00950059  RH  078%=      5-min Rain = 0
KES1 121225Z 02006KT 10/06 A3034 RMK A01 T00950059  RH  078%=      5-min Rain = 0
KES1 121226Z 01006KT 10/06 A3034 RMK A01 T00950060  RH  079%=      5-min Rain = 0
KES1 121227Z 01006KT 10/06 A3034 RMK A01 T00950061  RH  079%=      5-min Rain = 0
KES1 121228Z 02007KT 10/06 A3034 RMK A01 T00950061  RH  079%=      5-min Rain = 0
KES1 121229Z 01007KT 10/06 A3034 RMK A01 T00950060  RH  079%=      5-min Rain = 0
KES1 121230Z 02006KT 10/06 A3034 RMK A01 T00950061  RH  079%=      5-min Rain = 0
KES1 121231Z 02006KT 10/06 A3034 RMK A01 T00950061  RH  080%=      5-min Rain = 0
KES1 121232Z 01006KT 10/06 A3034 RMK A01 T00950061  RH  080%=      5-min Rain = 0
KES1 121233Z 02006KT 10/06 A3034 RMK A01 T00950062  RH  080%=      5-min Rain = 0
KES1 121234Z 02009KT 10/06 A3034 RMK A01 T00950061  RH  079%=      5-min Rain = 0
KES1 121235Z 03007KT 10/06 A3034 RMK A01 T00950060  RH  079%=      5-min Rain = 0
KES1 121236Z 02007KT 10/06 A3034 RMK A01 T00950060  RH  079%=      5-min Rain = 0
KES1 121237Z 02005KT 10/06 A3034 RMK A01 T00950060  RH  079%=      5-min Rain = 0
KES1 121238Z 02005KT 10/06 A3034 RMK A01 T00960061  RH  079%=      5-min Rain = 0
KES1 121239Z 02005KT 10/06 A3034 RMK A01 T00960061  RH  079%=      5-min Rain = 0
KES1 121240Z 03007KT 10/06 A3034 RMK A01 T00960061  RH  079%=      5-min Rain = 0
KES1 121241Z 02006KT 10/06 A3034 RMK A01 T00960061  RH  079%=      5-min Rain = 0
KES1 121242Z 02006KT 10/06 A3034 RMK A01 T00960061  RH  079%=      5-min Rain = 0
KES1 121243Z 02004KT 10/06 A3034 RMK A01 T00960061  RH  079%=      5-min Rain = 0
KES1 121244Z 04004KT 10/06 A3034 RMK A01 T00960061  RH  079%=      5-min Rain = 0
KES1 121245Z 03005KT 10/06 A3034 RMK A01 T00960061  RH  079%=      5-min Rain = 0
KES1 121246Z 04007KT 10/06 A3034 RMK A01 T00960061  RH  079%=      5-min Rain = 0
KES1 121247Z 04004KT 10/06 A3034 RMK A01 T00960060  RH  078%=      5-min Rain = 0
KES1 121248Z 04004KT 10/06 A3034 RMK A01 T00960061  RH  079%=      5-min Rain = 0
KES1 121249Z 05005KT 10/06 A3034 RMK A01 T00960061  RH  079%=      5-min Rain = 0
KES1 121250Z 04005KT 10/06 A3034 RMK A01 T00960060  RH  078%=      5-min Rain = 0
KES1 121251Z 04005KT 10/06 A3034 RMK A01 T00970060  RH  078%=      5-min Rain = 0
KES1 121252Z 05003KT 10/06 A3034 RMK A01 T00980062  RH  078%=      5-min Rain = 0
KES1 121253Z 04003KT 10/06 A3034 RMK A01 T00990063  RH  078%=      5-min Rain = 0
KES1 121254Z 05005KT 10/06 A3034 RMK A01 T00990061  RH  077%=      5-min Rain = 0
KES1 121255Z 05004KT 10/06 A3034 RMK A01 T00990062  RH  077%=      5-min Rain = 0
KES1 121256Z 06004KT 10/06 A3034 RMK A01 T00990060  RH  077%=      5-min Rain = 0
KES1 121257Z 04003KT 10/06 A3035 RMK A01 T00980061  RH  077%=      5-min Rain = 0
KES1 121258Z 04002KT 10/06 A3035 RMK A01 T00980061  RH  078%=      5-min Rain = 0
KES1 121259Z 04003KT 10/06 A3035 RMK A01 T00980062  RH  078%=      5-min Rain = 0
KES1 121300Z 04003KT 10/06 A3035 RMK A01 T00980062  RH  078%=      5-min Rain = 0
KES1 121301Z 04003KT 10/06 A3035 RMK A01 T00980062  RH  078%=      5-min Rain = 0
KES1 121302Z 03004KT 10/06 A3035 RMK A01 T00980062  RH  078%=      5-min Rain = 0
KES1 121303Z 03005KT 10/06 A3035 RMK A01 T00980061  RH  078%=      5-min Rain = 0
KES1 121304Z 03004KT 10/06 A3035 RMK A01 T00980060  RH  078%=      5-min Rain = 0
KES1 121305Z 03004KT 10/06 A3035 RMK A01 T00980061  RH  078%=      5-min Rain = 0
KES1 121306Z 02003KT 10/06 A3035 RMK A01 T00980061  RH  078%=      5-min Rain = 0
KES1 121307Z 03003KT 10/06 A3035 RMK A01 T01000064  RH  078%=      5-min Rain = 0
KES1 121308Z 03002KT 10/07 A3035 RMK A01 T01020066  RH  078%=      5-min Rain = 0
KES1 121309Z 03003KT 10/07 A3035 RMK A01 T01040066  RH  077%=      5-min Rain = 0
KES1 121310Z 02003KT 11/07 A3035 RMK A01 T01060065  RH  076%=      5-min Rain = 0
KES1 121311Z 02003KT 11/07 A3035 RMK A01 T01080065  RH  075%=      5-min Rain = 0
KES1 121312Z 03004KT 11/07 A3035 RMK A01 T01080066  RH  075%=      5-min Rain = 0
KES1 121313Z 02005KT 11/06 A3035 RMK A01 T01090064  RH  074%=      5-min Rain = 0
KES1 121314Z 02005KT 11/06 A3035 RMK A01 T01090063  RH  073%=      5-min Rain = 0
KES1 121315Z 02006KT 11/06 A3035 RMK A01 T01090063  RH  073%=      5-min Rain = 0
KES1 121316Z 01006KT 11/06 A3035 RMK A01 T01100063  RH  073%=      5-min Rain = 0
KES1 121317Z 01006KT 11/06 A3035 RMK A01 T01100062  RH  072%=      5-min Rain = 0
KES1 121318Z 03005KT 11/06 A3035 RMK A01 T01100062  RH  072%=      5-min Rain = 0
KES1 121319Z 00006KT 11/06 A3035 RMK A01 T01100062  RH  072%=      5-min Rain = 0
KES1 121320Z 02006KT 11/07 A3036 RMK A01 T01110065  RH  073%=      5-min Rain = 0
KES1 121321Z 02005KT 11/07 A3036 RMK A01 T01130065  RH  072%=      5-min Rain = 0
KES1 121322Z 02003KT 11/06 A3036 RMK A01 T01140064  RH  071%=      5-min Rain = 0
KES1 121323Z 02008KT 12/07 A3036 RMK A01 T01150065  RH  071%=      5-min Rain = 0
KES1 121324Z 02009KT 12/06 A3036 RMK A01 T01150062  RH  070%=      5-min Rain = 0
KES1 121325Z 03007KT 11/06 A3036 RMK A01 T01140062  RH  070%=      5-min Rain = 0
KES1 121326Z 03007KT 11/06 A3036 RMK A01 T01140063  RH  071%=      5-min Rain = 0
KES1 121327Z 02007KT 12/06 A3036 RMK A01 T01150064  RH  071%=      5-min Rain = 0
KES1 121328Z 02006KT 12/06 A3036 RMK A01 T01150064  RH  071%=      5-min Rain = 0
KES1 121329Z 02008KT 12/06 A3036 RMK A01 T01150064  RH  071%=      5-min Rain = 0
KES1 121330Z 03008KT 12/06 A3036 RMK A01 T01150063  RH  070%=      5-min Rain = 0
KES1 121331Z 02007KT 11/06 A3036 RMK A01 T01130061  RH  070%=      5-min Rain = 0
KES1 121332Z 02006KT 11/06 A3036 RMK A01 T01130062  RH  071%=      5-min Rain = 0
KES1 121333Z 02007KT 11/06 A3037 RMK A01 T01120064  RH  072%=      5-min Rain = 0
KES1 121334Z 03008KT 11/06 A3037 RMK A01 T01130064  RH  072%=      5-min Rain = 0
KES1 121335Z 03007KT 11/06 A3037 RMK A01 T01130062  RH  071%=      5-min Rain = 0
KES1 121336Z 03009KT 11/06 A3037 RMK A01 T01130062  RH  071%=      5-min Rain = 0
KES1 121337Z 02007KT 11/06 A3037 RMK A01 T01120062  RH  071%=      5-min Rain = 0
KES1 121338Z 02006KT 11/06 A3037 RMK A01 T01120063  RH  072%=      5-min Rain = 0
KES1 121339Z 02008KT 11/06 A3037 RMK A01 T01120064  RH  072%=      5-min Rain = 0
KES1 121340Z 03009KT 11/06 A3037 RMK A01 T01120063  RH  072%=      5-min Rain = 0
KES1 121341Z 03009KT 11/06 A3037 RMK A01 T01120062  RH  071%=      5-min Rain = 0
KES1 121342Z 03008KT 11/06 A3037 RMK A01 T01120063  RH  072%=      5-min Rain = 0
KES1 121343Z 02007KT 11/06 A3037 RMK A01 T01120063  RH  072%=      5-min Rain = 0
KES1 121344Z 03007KT 11/06 A3037 RMK A01 T01130064  RH  072%=      5-min Rain = 0
KES1 121345Z 04007KT 11/06 A3037 RMK A01 T01140064  RH  071%=      5-min Rain = 0
KES1 121346Z 04007KT 12/07 A3037 RMK A01 T01160065  RH  071%=      5-min Rain = 0
KES1 121347Z 04007KT 12/07 A3037 RMK A01 T01180067  RH  071%=      5-min Rain = 0
KES1 121348Z 03006KT 12/07 A3037 RMK A01 T01200067  RH  070%=      5-min Rain = 0
KES1 121349Z 03008KT 12/07 A3037 RMK A01 T01220067  RH  069%=      5-min Rain = 0
KES1 121350Z 02009KT 12/07 A3037 RMK A01 T01220065  RH  068%=      5-min Rain = 0
KES1 121351Z 02006KT 12/06 A3037 RMK A01 T01200064  RH  069%=      5-min Rain = 0
KES1 121352Z 03009KT 12/07 A3037 RMK A01 T01200065  RH  069%=      5-min Rain = 0
KES1 121353Z 02008KT 12/06 A3037 RMK A01 T01190064  RH  069%=      5-min Rain = 0
KES1 121354Z 02007KT 12/06 A3037 RMK A01 T01190064  RH  069%=      5-min Rain = 0
KES1 121355Z 02008KT 12/06 A3037 RMK A01 T01200064  RH  069%=      5-min Rain = 0
KES1 121356Z 02007KT 12/07 A3037 RMK A01 T01210066  RH  069%=      5-min Rain = 0
KES1 121357Z 03008KT 12/07 A3037 RMK A01 T01220065  RH  069%=      5-min Rain = 0
KES1 121358Z 04009KT 12/07 A3037 RMK A01 T01230066  RH  068%=      5-min Rain = 0
KES1 121359Z 03008KT 12/07 A3037 RMK A01 T01230065  RH  068%=      5-min Rain = 0
KES1 121400Z 04008KT 12/07 A3037 RMK A01 T01240066  RH  068%=      5-min Rain = 0
KES1 121401Z 04007KT 12/07 A3038 RMK A01 T01240066  RH  068%=      5-min Rain = 0
KES1 121402Z 06008KT 13/07 A3037 RMK A01 T01250067  RH  068%=      5-min Rain = 0
KES1 121403Z 04009KT 13/07 A3038 RMK A01 T01270069  RH  068%=      5-min Rain = 0
KES1 121404Z 04008KT 13/07 A3038 RMK A01 T01280068  RH  066%=      5-min Rain = 0
KES1 121405Z 03009KT 13/07 A3038 RMK A01 T01290067  RH  066%=      5-min Rain = 0
KES1 121406Z 03008KT 13/07 A3038 RMK A01 T01280066  RH  066%=      5-min Rain = 0
KES1 121407Z 03008KT 13/07 A3038 RMK A01 T01260065  RH  066%=      5-min Rain = 0
KES1 121408Z 03009KT 13/07 A3038 RMK A01 T01250065  RH  067%=      5-min Rain = 0
KES1 121409Z 04007KT 13/07 A3038 RMK A01 T01250065  RH  067%=      5-min Rain = 0
KES1 121410Z 04005KT 13/07 A3038 RMK A01 T01270067  RH  067%=      5-min Rain = 0
KES1 121411Z 04007KT 13/07 A3038 RMK A01 T01290070  RH  067%=      5-min Rain = 0
KES1 121412Z 03008KT 13/07 A3038 RMK A01 T01310068  RH  065%=      5-min Rain = 0
KES1 121413Z 02010KT 13/07 A3038 RMK A01 T01300066  RH  065%=      5-min Rain = 0
KES1 121414Z 03007KT 13/06 A3038 RMK A01 T01270064  RH  066%=      5-min Rain = 0
KES1 121415Z 01007KT 13/07 A3038 RMK A01 T01260067  RH  067%=      5-min Rain = 0
KES1 121416Z 03009KT 13/07 A3038 RMK A01 T01280069  RH  067%=      5-min Rain = 0
KES1 121417Z 04011KT 13/07 A3038 RMK A01 T01290067  RH  066%=      5-min Rain = 0
KES1 121418Z 04008KT 13/07 A3038 RMK A01 T01300065  RH  065%=      5-min Rain = 0
KES1 121419Z 03008KT 13/07 A3038 RMK A01 T01290065  RH  065%=      5-min Rain = 0
KES1 121420Z 03009KT 13/07 A3038 RMK A01 T01280066  RH  066%=      5-min Rain = 0
KES1 121421Z 03008KT 13/07 A3038 RMK A01 T01290067  RH  066%=      5-min Rain = 0
KES1 121422Z 04008KT 13/07 A3038 RMK A01 T01300068  RH  066%=      5-min Rain = 0
KES1 121423Z 03007KT 13/07 A3038 RMK A01 T01310067  RH  065%=      5-min Rain = 0
KES1 121424Z 03010KT 13/07 A3038 RMK A01 T01300066  RH  065%=      5-min Rain = 0
KES1 121425Z 04007KT 13/07 A3038 RMK A01 T01310067  RH  065%=      5-min Rain = 0
KES1 121426Z 04006KT 13/07 A3038 RMK A01 T01320067  RH  065%=      5-min Rain = 0
KES1 121427Z 05008KT 13/07 A3038 RMK A01 T01340068  RH  064%=      5-min Rain = 0
KES1 121428Z 05008KT 13/07 A3037 RMK A01 T01340068  RH  064%=      5-min Rain = 0
KES1 121429Z 05007KT 14/07 A3037 RMK A01 T01360072  RH  065%=      5-min Rain = 0
KES1 121430Z 03006KT 14/07 A3037 RMK A01 T01390071  RH  064%=      5-min Rain = 0
KES1 121431Z 03009KT 14/07 A3037 RMK A01 T01400068  RH  062%=      5-min Rain = 0
KES1 121432Z 04009KT 14/07 A3037 RMK A01 T01380065  RH  062%=      5-min Rain = 0
KES1 121433Z 05008KT 14/07 A3037 RMK A01 T01360067  RH  063%=      5-min Rain = 0
KES1 121434Z 04009KT 14/07 A3037 RMK A01 T01370067  RH  063%=      5-min Rain = 0
KES1 121435Z 04009KT 14/07 A3037 RMK A01 T01370065  RH  062%=      5-min Rain = 0
KES1 121436Z 06009KT 14/07 A3037 RMK A01 T01370066  RH  062%=      5-min Rain = 0
KES1 121437Z 07008KT 14/07 A3037 RMK A01 T01360065  RH  062%=      5-min Rain = 0
KES1 121438Z 07007KT 14/06 A3037 RMK A01 T01350064  RH  062%=      5-min Rain = 0
KES1 121439Z 06006KT 13/07 A3037 RMK A01 T01340065  RH  063%=      5-min Rain = 0
KES1 121440Z 06004KT 13/07 A3037 RMK A01 T01330065  RH  063%=      5-min Rain = 0
KES1 121441Z 05004KT 14/07 A3037 RMK A01 T01350069  RH  064%=      5-min Rain = 0
KES1 121442Z 06008KT 14/07 A3037 RMK A01 T01390072  RH  064%=      5-min Rain = 0
KES1 121443Z 07008KT 14/07 A3037 RMK A01 T01420071  RH  062%=      5-min Rain = 0
KES1 121444Z 07006KT 14/07 A3037 RMK A01 T01430068  RH  061%=      5-min Rain = 0
KES1 121445Z 01004G9KT 14/07 A3037 RMK A01 T01430069  RH  061%=      5-min Rain = 0
KES1 121446Z 03008KT 14/07 A3037 RMK A01 T01420071  RH  062%=      5-min Rain = 0
KES1 121447Z 03008KT 14/07 A3037 RMK A01 T01420066  RH  060%=      5-min Rain = 0
KES1 121448Z 03007KT 14/06 A3037 RMK A01 T01390063  RH  060%=      5-min Rain = 0
KES1 121449Z 03006KT 14/07 A3037 RMK A01 T01360066  RH  063%=      5-min Rain = 0
KES1 121450Z 04006KT 14/07 A3037 RMK A01 T01390071  RH  063%=      5-min Rain = 0
KES1 121451Z 03007KT 14/07 A3037 RMK A01 T01430070  RH  062%=      5-min Rain = 0
KES1 121452Z 02007KT 14/07 A3037 RMK A01 T01430066  RH  060%=      5-min Rain = 0
KES1 121453Z 03007KT 14/07 A3037 RMK A01 T01420065  RH  060%=      5-min Rain = 0
KES1 121454Z 04006KT 14/07 A3037 RMK A01 T01410067  RH  061%=      5-min Rain = 0
KES1 121455Z 04009KT 14/07 A3037 RMK A01 T01420065  RH  060%=      5-min Rain = 0
KES1 121456Z 04009KT 14/07 A3037 RMK A01 T01430065  RH  060%=      5-min Rain = 0
KES1 121457Z 03006KT 14/07 A3037 RMK A01 T01430067  RH  060%=      5-min Rain = 0
KES1 121458Z 05007KT 14/07 A3037 RMK A01 T01440066  RH  060%=      5-min Rain = 0
KES1 121459Z 04008KT 15/07 A3037 RMK A01 T01460070  RH  060%=      5-min Rain = 0
KES1 121500Z 03008KT 15/07 A3037 RMK A01 T01470069  RH  059%=      5-min Rain = 0
KES1 121501Z 04006G12KT 15/07 A3037 RMK A01 T01470069  RH  059%=      5-min Rain = 0
KES1 121502Z 01009KT 15/07 A3037 RMK A01 T01470069  RH  059%=      5-min Rain = 0
KES1 121503Z 02009KT 15/07 A3037 RMK A01 T01470066  RH  058%=      5-min Rain = 0
KES1 121504Z 00010KT 15/07 A3037 RMK A01 T01470067  RH  059%=      5-min Rain = 0
KES1 121505Z 01012KT 15/07 A3037 RMK A01 T01470068  RH  059%=      5-min Rain = 0
KES1 121506Z 02009KT 15/07 A3037 RMK A01 T01470066  RH  058%=      5-min Rain = 0
KES1 121507Z 04008KT 15/07 A3037 RMK A01 T01460066  RH  058%=      5-min Rain = 0
KES1 121508Z 03009KT 15/07 A3037 RMK A01 T01470065  RH  058%=      5-min Rain = 0
KES1 121509Z 04009KT 15/07 A3037 RMK A01 T01480067  RH  058%=      5-min Rain = 0
KES1 121510Z 03009KT 15/07 A3037 RMK A01 T01500066  RH  057%=      5-min Rain = 0
KES1 121511Z 02009KT 15/07 A3037 RMK A01 T01490065  RH  057%=      5-min Rain = 0
KES1 121512Z 04008KT 15/07 A3037 RMK A01 T01480066  RH  058%=      5-min Rain = 0
KES1 121513Z 04004KT 15/07 A3037 RMK A01 T01470067  RH  058%=      5-min Rain = 0
KES1 121514Z 04007KT 15/07 A3037 RMK A01 T01510072  RH  059%=      5-min Rain = 0
KES1 121515Z 03010KT 16/07 A3037 RMK A01 T01550069  RH  057%=      5-min Rain = 0
KES1 121516Z 02010KT 16/07 A3037 RMK A01 T01570066  RH  055%=      5-min Rain = 0
KES1 121517Z 01010KT 15/06 A3037 RMK A01 T01540061  RH  054%=      5-min Rain = 0
KES1 121518Z 00009KT 15/06 A3037 RMK A01 T01500062  RH  056%=      5-min Rain = 0
KES1 121519Z 02010KT 15/06 A3037 RMK A01 T01460061  RH  057%=      5-min Rain = 0
KES1 121520Z 03009KT 14/06 A3037 RMK A01 T01420060  RH  058%=      5-min Rain = 0
KES1 121521Z 03008KT 14/06 A3037 RMK A01 T01430063  RH  059%=      5-min Rain = 0
KES1 121522Z 04009KT 15/07 A3037 RMK A01 T01460067  RH  059%=      5-min Rain = 0
KES1 121523Z 01012KT 15/07 A3037 RMK A01 T01510067  RH  057%=      5-min Rain = 0
KES1 121524Z 00011KT 15/07 A3037 RMK A01 T01520065  RH  056%=      5-min Rain = 0
KES1 121525Z 36009KT 15/06 A3037 RMK A01 T01500064  RH  056%=      5-min Rain = 0
KES1 121526Z 02011KT 15/07 A3037 RMK A01 T01500065  RH  057%=      5-min Rain = 0
KES1 121527Z 01009KT 15/06 A3037 RMK A01 T01500063  RH  056%=      5-min Rain = 0
KES1 121528Z 02009KT 15/07 A3037 RMK A01 T01500066  RH  057%=      5-min Rain = 0
KES1 121529Z 01008KT 15/06 A3037 RMK A01 T01520064  RH  056%=      5-min Rain = 0
KES1 121530Z 03010KT 15/06 A3037 RMK A01 T01510064  RH  056%=      5-min Rain = 0
KES1 121531Z 03007KT 15/07 A3037 RMK A01 T01520066  RH  056%=      5-min Rain = 0
KES1 121532Z 03009KT 15/07 A3037 RMK A01 T01530066  RH  056%=      5-min Rain = 0
KES1 121533Z 02009KT 15/06 A3037 RMK A01 T01510064  RH  056%=      5-min Rain = 0
KES1 121534Z 01012KT 15/06 A3037 RMK A01 T01490064  RH  057%=      5-min Rain = 0
KES1 121535Z 01011KT 15/06 A3037 RMK A01 T01460061  RH  057%=      5-min Rain = 0
KES1 121536Z 01012KT 15/06 A3037 RMK A01 T01450061  RH  057%=      5-min Rain = 0
KES1 121537Z 01011KT 14/06 A3037 RMK A01 T01440059  RH  056%=      5-min Rain = 0
KES1 121538Z 02009KT 15/06 A3037 RMK A01 T01460060  RH  056%=      5-min Rain = 0
KES1 121539Z 01011G16KT 15/06 A3037 RMK A01 T01490060  RH  055%=      5-min Rain = 0
KES1 121540Z 02011KT 15/06 A3037 RMK A01 T01490060  RH  055%=      5-min Rain = 0
KES1 121541Z 02008KT 15/06 A3037 RMK A01 T01450058  RH  056%=      5-min Rain = 0
KES1 121542Z 36012KT 14/06 A3037 RMK A01 T01430062  RH  058%=      5-min Rain = 0
KES1 121543Z 00011KT 14/06 A3037 RMK A01 T01440062  RH  058%=      5-min Rain = 0
KES1 121544Z 01013KT 15/06 A3037 RMK A01 T01460064  RH  058%=      5-min Rain = 0
KES1 121545Z 36014KT 15/06 A3037 RMK A01 T01490063  RH  057%=      5-min Rain = 0
KES1 121546Z 01011KT 15/06 A3037 RMK A01 T01490064  RH  057%=      5-min Rain = 0
KES1 121547Z 02011KT 15/06 A3037 RMK A01 T01510064  RH  056%=      5-min Rain = 0
KES1 121548Z 36011KT 15/06 A3037 RMK A01 T01500064  RH  056%=      5-min Rain = 0
KES1 121549Z 00010KT 15/06 A3037 RMK A01 T01490062  RH  056%=      5-min Rain = 0
KES1 121550Z 02009KT 15/06 A3037 RMK A01 T01490063  RH  056%=      5-min Rain = 0
KES1 121551Z 03011KT 15/06 A3037 RMK A01 T01510063  RH  056%=      5-min Rain = 0
KES1 121552Z 02011G17KT 15/06 A3037 RMK A01 T01510064  RH  056%=      5-min Rain = 0
KES1 121553Z 36013KT 15/06 A3037 RMK A01 T01500062  RH  056%=      5-min Rain = 0
KES1 121554Z 00012KT 15/06 A3037 RMK A01 T01470062  RH  057%=      5-min Rain = 0
KES1 121555Z 01013KT 15/06 A3037 RMK A01 T01470063  RH  057%=      5-min Rain = 0
KES1 121556Z 01010KT 15/06 A3037 RMK A01 T01460060  RH  056%=      5-min Rain = 0
KES1 121557Z 01010KT 15/06 A3037 RMK A01 T01450061  RH  057%=      5-min Rain = 0
KES1 121558Z 01009KT 15/06 A3037 RMK A01 T01450060  RH  057%=      5-min Rain = 0
KES1 121559Z 01011KT 15/06 A3037 RMK A01 T01450061  RH  057%=      5-min Rain = 0
KES1 121600Z 01011KT 15/06 A3037 RMK A01 T01460060  RH  057%=      5-min Rain = 0
KES1 121601Z 01010KT 15/06 A3037 RMK A01 T01450058  RH  056%=      5-min Rain = 0
KES1 121602Z 02010KT 15/06 A3037 RMK A01 T01450059  RH  056%=      5-min Rain = 0
KES1 121603Z 01012KT 14/06 A3037 RMK A01 T01440060  RH  057%=      5-min Rain = 0
KES1 121604Z 36008KT 15/07 A3037 RMK A01 T01450065  RH  059%=      5-min Rain = 0
KES1 121605Z 00011G16KT 15/07 A3037 RMK A01 T01510069  RH  058%=      5-min Rain = 0
KES1 121606Z 35014KT 16/07 A3037 RMK A01 T01550069  RH  056%=      5-min Rain = 0
KES1 121607Z 34011KT 15/07 A3037 RMK A01 T01510065  RH  056%=      5-min Rain = 0
KES1 121608Z 34013KT 15/07 A3037 RMK A01 T01510066  RH  057%=      5-min Rain = 0
KES1 121609Z 01014KT 15/06 A3037 RMK A01 T01500064  RH  056%=      5-min Rain = 0
KES1 121610Z 01011KT 15/06 A3037 RMK A01 T01480059  RH  055%=      5-min Rain = 0
KES1 121611Z 00011KT 15/06 A3037 RMK A01 T01450060  RH  057%=      5-min Rain = 0
KES1 121612Z 02010KT 15/06 A3037 RMK A01 T01450061  RH  057%=      5-min Rain = 0
KES1 121613Z 02008KT 14/06 A3037 RMK A01 T01440059  RH  056%=      5-min Rain = 0
KES1 121614Z 36009KT 14/06 A3037 RMK A01 T01440061  RH  057%=      5-min Rain = 0
KES1 121615Z 35011KT 14/06 A3037 RMK A01 T01440060  RH  057%=      5-min Rain = 0
KES1 121616Z 00012KT 15/06 A3037 RMK A01 T01450061  RH  057%=      5-min Rain = 0
KES1 121617Z 02012KT 15/06 A3037 RMK A01 T01460063  RH  058%=      5-min Rain = 0
KES1 121618Z 03011KT 15/06 A3037 RMK A01 T01460063  RH  057%=      5-min Rain = 0
KES1 121619Z 02010KT 15/06 A3037 RMK A01 T01450061  RH  057%=      5-min Rain = 0
KES1 121620Z 02012KT 14/06 A3037 RMK A01 T01440060  RH  057%=      5-min Rain = 0
KES1 121621Z 02013KT 14/06 A3037 RMK A01 T01440058  RH  056%=      5-min Rain = 0
KES1 121622Z 02009KT 14/06 A3037 RMK A01 T01430057  RH  056%=      5-min Rain = 0
KES1 121623Z 02008KT 14/06 A3037 RMK A01 T01430059  RH  057%=      5-min Rain = 0
KES1 121624Z 03007KT 15/06 A3037 RMK A01 T01450062  RH  057%=      5-min Rain = 0
KES1 121625Z 05008KT 15/06 A3037 RMK A01 T01470061  RH  056%=      5-min Rain = 0
KES1 121626Z 05009KT 15/06 A3037 RMK A01 T01490063  RH  056%=      5-min Rain = 0
KES1 121627Z 05013KT 15/07 A3037 RMK A01 T01520065  RH  056%=      5-min Rain = 0
KES1 121628Z 04013G18KT 15/06 A3037 RMK A01 T01520060  RH  054%=      5-min Rain = 0
KES1 121629Z 03012KT 16/06 A3037 RMK A01 T01550061  RH  054%=      5-min Rain = 0
KES1 121630Z 03012KT 16/06 A3037 RMK A01 T01560059  RH  052%=      5-min Rain = 0
KES1 121631Z 04011KT 16/06 A3037 RMK A01 T01570060  RH  052%=      5-min Rain = 0
KES1 121632Z 03010KT 16/06 A3037 RMK A01 T01580060  RH  052%=      5-min Rain = 0
KES1 121633Z 03013KT 16/06 A3037 RMK A01 T01580058  RH  052%=      5-min Rain = 0
KES1 121634Z 03010KT 16/05 A3037 RMK A01 T01580054  RH  050%=      5-min Rain = 0
KES1 121635Z 02009KT 16/06 A3037 RMK A01 T01580059  RH  052%=      5-min Rain = 0
KES1 121636Z 04008KT 16/06 A3037 RMK A01 T01600061  RH  052%=      5-min Rain = 0
KES1 121637Z 05010KT 16/06 A3036 RMK A01 T01610060  RH  051%=      5-min Rain = 0
KES1 121638Z 02009KT 16/06 A3036 RMK A01 T01640062  RH  051%=      5-min Rain = 0
KES1 121639Z 01010KT 16/06 A3036 RMK A01 T01640060  RH  050%=      5-min Rain = 0
KES1 121640Z 03011KT 16/06 A3036 RMK A01 T01610058  RH  050%=      5-min Rain = 0
KES1 121641Z 03007KT 16/06 A3036 RMK A01 T01590060  RH  052%=      5-min Rain = 0
KES1 121642Z 01008KT 16/06 A3036 RMK A01 T01610064  RH  052%=      5-min Rain = 0
KES1 121643Z 36010KT 17/06 A3036 RMK A01 T01650061  RH  050%=      5-min Rain = 0
KES1 121644Z 03009KT 17/06 A3036 RMK A01 T01670061  RH  050%=      5-min Rain = 0
KES1 121645Z 04008KT 17/06 A3036 RMK A01 T01700061  RH  048%=      5-min Rain = 0
KES1 121646Z 04009KT 17/06 A3036 RMK A01 T01730060  RH  047%=      5-min Rain = 0
KES1 121647Z 03008KT 17/05 A3036 RMK A01 T01740051  RH  044%=      5-min Rain = 0
KES1 121648Z 04009KT 17/05 A3036 RMK A01 T01710053  RH  046%=      5-min Rain = 0
KES1 121649Z 04010KT 17/06 A3036 RMK A01 T01710057  RH  047%=      5-min Rain = 0
KES1 121650Z 04009KT 17/06 A3036 RMK A01 T01720061  RH  048%=      5-min Rain = 0
KES1 121651Z 03011KT 17/06 A3036 RMK A01 T01710060  RH  048%=      5-min Rain = 0
KES1 121652Z 03007KT 17/06 A3036 RMK A01 T01660057  RH  048%=      5-min Rain = 0
KES1 121653Z 02008KT 16/06 A3036 RMK A01 T01620057  RH  049%=      5-min Rain = 0
KES1 121654Z 04009KT 16/06 A3036 RMK A01 T01600056  RH  050%=      5-min Rain = 0
KES1 121655Z 03011KT 16/05 A3036 RMK A01 T01590054  RH  050%=      5-min Rain = 0
KES1 121656Z 03009KT 16/06 A3036 RMK A01 T01610058  RH  051%=      5-min Rain = 0
KES1 121657Z 04008KT 16/06 A3036 RMK A01 T01640056  RH  049%=      5-min Rain = 0
KES1 121658Z 04008G13KT 17/06 A3036 RMK A01 T01660055  RH  048%=      5-min Rain = 0
KES1 121659Z 02012KT 17/06 A3036 RMK A01 T01670056  RH  048%=      5-min Rain = 0
KES1 121700Z 03012KT 17/05 A3036 RMK A01 T01670051  RH  046%=      5-min Rain = 0
KES1 121701Z 04010KT 17/05 A3036 RMK A01 T01650049  RH  046%=      5-min Rain = 0
KES1 121702Z 05010KT 17/05 A3036 RMK A01 T01660054  RH  048%=      5-min Rain = 0
KES1 121703Z 03009KT 17/06 A3036 RMK A01 T01700060  RH  049%=      5-min Rain = 0
KES1 121704Z 04010KT 17/06 A3036 RMK A01 T01710056  RH  047%=      5-min Rain = 0
KES1 121705Z 03009KT 17/06 A3036 RMK A01 T01690056  RH  047%=      5-min Rain = 0
KES1 121706Z 02010KT 17/06 A3036 RMK A01 T01680055  RH  047%=      5-min Rain = 0
KES1 121707Z 03009KT 17/05 A3036 RMK A01 T01690051  RH  046%=      5-min Rain = 0
KES1 121708Z 04010KT 17/05 A3035 RMK A01 T01710054  RH  046%=      5-min Rain = 0
KES1 121709Z 04009KT 17/05 A3035 RMK A01 T01730054  RH  045%=      5-min Rain = 0
KES1 121710Z 05008KT 17/05 A3035 RMK A01 T01730049  RH  044%=      5-min Rain = 0
KES1 121711Z 04007KT 17/05 A3035 RMK A01 T01700050  RH  045%=      5-min Rain = 0
KES1 121712Z 03010KT 17/05 A3035 RMK A01 T01710050  RH  045%=      5-min Rain = 0
KES1 121713Z 02008KT 17/05 A3035 RMK A01 T01700049  RH  045%=      5-min Rain = 0
KES1 121714Z 03007KT 17/05 A3035 RMK A01 T01710050  RH  045%=      5-min Rain = 0
KES1 121715Z 04005KT 17/05 A3035 RMK A01 T01710051  RH  045%=      5-min Rain = 0
KES1 121716Z 05011KT 17/06 A3035 RMK A01 T01730057  RH  046%=      5-min Rain = 0
KES1 121717Z 06011KT 17/05 A3035 RMK A01 T01720052  RH  045%=      5-min Rain = 0
KES1 121718Z 06011KT 17/05 A3035 RMK A01 T01680049  RH  045%=      5-min Rain = 0
KES1 121719Z 07010KT 17/05 A3035 RMK A01 T01650050  RH  047%=      5-min Rain = 0
KES1 121720Z 07009KT 16/05 A3035 RMK A01 T01630052  RH  048%=      5-min Rain = 0
KES1 121721Z 06006KT 17/06 A3035 RMK A01 T01670057  RH  048%=      5-min Rain = 0
KES1 121722Z 03010KT 17/06 A3035 RMK A01 T01740060  RH  047%=      5-min Rain = 0
KES1 121723Z 03009KT 18/05 A3035 RMK A01 T01770052  RH  044%=      5-min Rain = 0
KES1 121724Z 04011KT 18/05 A3035 RMK A01 T01760052  RH  044%=      5-min Rain = 0
KES1 121725Z 03008KT 18/05 A3035 RMK A01 T01760054  RH  044%=      5-min Rain = 0
KES1 121726Z 04006KT 18/05 A3035 RMK A01 T01760054  RH  044%=      5-min Rain = 0
KES1 121727Z 03007KT 18/05 A3035 RMK A01 T01760051  RH  044%=      5-min Rain = 0
KES1 121728Z 03008KT 18/05 A3035 RMK A01 T01750048  RH  043%=      5-min Rain = 0
KES1 121729Z 01008KT 17/05 A3035 RMK A01 T01730047  RH  043%=      5-min Rain = 0
KES1 121730Z 36010KT 17/06 A3035 RMK A01 T01740055  RH  046%=      5-min Rain = 0
KES1 121731Z 03008KT 18/06 A3035 RMK A01 T01800056  RH  044%=      5-min Rain = 0
KES1 121732Z 03008KT 18/05 A3035 RMK A01 T01790052  RH  043%=      5-min Rain = 0
KES1 121733Z 01008G13KT 18/05 A3035 RMK A01 T01780054  RH  044%=      5-min Rain = 0
KES1 121734Z 03010KT 18/05 A3035 RMK A01 T01790052  RH  043%=      5-min Rain = 0
KES1 121735Z 03009KT 18/05 A3035 RMK A01 T01790052  RH  043%=      5-min Rain = 0
KES1 121736Z 06011KT 18/05 A3035 RMK A01 T01780053  RH  044%=      5-min Rain = 0
KES1 121737Z 04007KT 18/05 A3035 RMK A01 T01800053  RH  043%=      5-min Rain = 0
KES1 121738Z 05009KT 18/05 A3035 RMK A01 T01810053  RH  043%=      5-min Rain = 0
KES1 121739Z 01005KT 18/06 A3035 RMK A01 T01830055  RH  043%=      5-min Rain = 0
KES1 121740Z 02006KT 19/06 A3035 RMK A01 T01850056  RH  043%=      5-min Rain = 0
KES1 121741Z 04006KT 19/06 A3035 RMK A01 T01860059  RH  043%=      5-min Rain = 0
KES1 121742Z 03006KT 19/06 A3035 RMK A01 T01870055  RH  042%=      5-min Rain = 0
KES1 121743Z 01006KT 18/05 A3034 RMK A01 T01840049  RH  041%=      5-min Rain = 0
KES1 121744Z 01009KT 18/05 A3034 RMK A01 T01780045  RH  041%=      5-min Rain = 0
KES1 121745Z 01009KT 18/05 A3034 RMK A01 T01760047  RH  042%=      5-min Rain = 0
KES1 121746Z 02011KT 17/04 A3034 RMK A01 T01720043  RH  042%=      5-min Rain = 0
KES1 121747Z 00009KT 17/04 A3035 RMK A01 T01680044  RH  044%=      5-min Rain = 0
KES1 121748Z 01008KT 17/05 A3034 RMK A01 T01700047  RH  044%=      5-min Rain = 0
KES1 121749Z 02006KT 18/05 A3034 RMK A01 T01750049  RH  043%=      5-min Rain = 0
KES1 121750Z 02005KT 18/04 A3034 RMK A01 T01750041  RH  041%=      5-min Rain = 0
KES1 121751Z 03003KT 17/04 A3034 RMK A01 T01710041  RH  042%=      5-min Rain = 0
KES1 121752Z 01006KT 17/05 A3034 RMK A01 T01720048  RH  044%=      5-min Rain = 0
KES1 121753Z 03007KT 18/04 A3034 RMK A01 T01750044  RH  042%=      5-min Rain = 0
KES1 121754Z 06007KT 17/04 A3034 RMK A01 T01740044  RH  042%=      5-min Rain = 0
KES1 121755Z 07007KT 18/05 A3034 RMK A01 T01760049  RH  043%=      5-min Rain = 0
KES1 121756Z 07009KT 18/05 A3034 RMK A01 T01780050  RH  043%=      5-min Rain = 0
KES1 121757Z 05009KT 18/05 A3034 RMK A01 T01790051  RH  043%=      5-min Rain = 0
KES1 121758Z 05008KT 18/05 A3034 RMK A01 T01790052  RH  043%=      5-min Rain = 0
KES1 121759Z 05008KT 18/05 A3034 RMK A01 T01800053  RH  043%=      5-min Rain = 0
KES1 121800Z 04006KT 18/05 A3034 RMK A01 T01820053  RH  043%=      5-min Rain = 0
KES1 121801Z 04010KT 18/05 A3035 RMK A01 T01840054  RH  042%=      5-min Rain = 0
KES1 121802Z 03007KT 18/05 A3035 RMK A01 T01820049  RH  041%=      5-min Rain = 0
KES1 121803Z 01007KT 18/05 A3035 RMK A01 T01800049  RH  042%=      5-min Rain = 0
KES1 121804Z 03008KT 18/05 A3035 RMK A01 T01790050  RH  043%=      5-min Rain = 0
KES1 121805Z 04007KT 18/05 A3034 RMK A01 T01800052  RH  043%=      5-min Rain = 0
KES1 121806Z 01011KT 18/05 A3035 RMK A01 T01810051  RH  042%=      5-min Rain = 0
KES1 121807Z 00009KT 18/05 A3035 RMK A01 T01800047  RH  041%=      5-min Rain = 0
KES1 121808Z 35009KT 18/05 A3034 RMK A01 T01780048  RH  042%=      5-min Rain = 0
KES1 121809Z 35010KT 18/05 A3034 RMK A01 T01820050  RH  042%=      5-min Rain = 0
KES1 121810Z 35009KT 18/05 A3034 RMK A01 T01820047  RH  041%=      5-min Rain = 0
KES1 121811Z 01007G12KT 18/04 A3034 RMK A01 T01770043  RH  041%=      5-min Rain = 0
KES1 121812Z 01006KT 18/05 A3034 RMK A01 T01760048  RH  043%=      5-min Rain = 0
KES1 121813Z 00005KT 18/04 A3034 RMK A01 T01750043  RH  042%=      5-min Rain = 0
KES1 121814Z 01005KT 17/05 A3034 RMK A01 T01730046  RH  043%=      5-min Rain = 0
KES1 121815Z 01005KT 18/05 A3034 RMK A01 T01770050  RH  043%=      5-min Rain = 0
KES1 121816Z 04006G11KT 18/05 A3034 RMK A01 T01790049  RH  042%=      5-min Rain = 0
KES1 121817Z 03009KT 19/06 A3034 RMK A01 T01850057  RH  043%=      5-min Rain = 0
KES1 121818Z 03009KT 19/05 A3034 RMK A01 T01900054  RH  041%=      5-min Rain = 0
KES1 121819Z 06007KT 19/05 A3034 RMK A01 T01890049  RH  040%=      5-min Rain = 0
KES1 121820Z 36006G11KT 19/05 A3034 RMK A01 T01870053  RH  041%=      5-min Rain = 0
KES1 121821Z 35013KT 19/05 A3034 RMK A01 T01900053  RH  041%=      5-min Rain = 0
KES1 121822Z 00009KT 19/05 A3034 RMK A01 T01860048  RH  040%=      5-min Rain = 0
KES1 121823Z 01011KT 18/05 A3034 RMK A01 T01820048  RH  041%=      5-min Rain = 0
KES1 121824Z 01011KT 18/05 A3034 RMK A01 T01810049  RH  042%=      5-min Rain = 0
KES1 121825Z 01012KT 18/05 A3034 RMK A01 T01800048  RH  042%=      5-min Rain = 0
KES1 121826Z 02010KT 18/05 A3034 RMK A01 T01790048  RH  042%=      5-min Rain = 0
KES1 121827Z 03010KT 18/05 A3034 RMK A01 T01770048  RH  042%=      5-min Rain = 0
KES1 121828Z 03008KT 18/05 A3034 RMK A01 T01760047  RH  043%=      5-min Rain = 0
KES1 121829Z 06008KT 18/05 A3034 RMK A01 T01750050  RH  044%=      5-min Rain = 0
KES1 121830Z 07009KT 18/05 A3034 RMK A01 T01770051  RH  043%=      5-min Rain = 0
KES1 121831Z 08007KT 18/05 A3034 RMK A01 T01800054  RH  043%=      5-min Rain = 0
KES1 121832Z 06006KT 19/06 A3033 RMK A01 T01860059  RH  043%=      5-min Rain = 0
KES1 121833Z 02010KT 19/05 A3034 RMK A01 T01870053  RH  041%=      5-min Rain = 0
KES1 121834Z 01014KT 19/05 A3034 RMK A01 T01850049  RH  041%=      5-min Rain = 0
KES1 121835Z 01011KT 18/04 A3034 RMK A01 T01800044  RH  041%=      5-min Rain = 0
KES1 121836Z 02008KT 18/05 A3034 RMK A01 T01770046  RH  042%=      5-min Rain = 0
KES1 121837Z 01006KT 18/05 A3034 RMK A01 T01770047  RH  042%=      5-min Rain = 0
KES1 121838Z 00008KT 18/05 A3034 RMK A01 T01800047  RH  042%=      5-min Rain = 0
KES1 121839Z 35003KT 18/05 A3034 RMK A01 T01810045  RH  041%=      5-min Rain = 0
KES1 121840Z 04006KT 18/05 A3034 RMK A01 T01810048  RH  041%=      5-min Rain = 0
KES1 121841Z 06008KT 18/05 A3034 RMK A01 T01830047  RH  041%=      5-min Rain = 0
KES1 121842Z 02006KT 18/05 A3034 RMK A01 T01840050  RH  041%=      5-min Rain = 0
KES1 121843Z 35007KT 19/05 A3034 RMK A01 T01860050  RH  041%=      5-min Rain = 0
KES1 121844Z 35007KT 18/05 A3033 RMK A01 T01840049  RH  041%=      5-min Rain = 0
KES1 121845Z 02012KT 19/06 A3034 RMK A01 T01860056  RH  042%=      5-min Rain = 0
KES1 121846Z 02012KT 19/05 A3034 RMK A01 T01890054  RH  041%=      5-min Rain = 0
KES1 121847Z 03012KT 19/05 A3034 RMK A01 T01870051  RH  041%=      5-min Rain = 0
KES1 121848Z 03009KT 18/05 A3034 RMK A01 T01810047  RH  041%=      5-min Rain = 0
KES1 121849Z 05009KT 18/05 A3034 RMK A01 T01790050  RH  042%=      5-min Rain = 0
KES1 121850Z 04009KT 18/05 A3034 RMK A01 T01790050  RH  043%=      5-min Rain = 0
KES1 121851Z 06006KT 18/05 A3034 RMK A01 T01800050  RH  042%=      5-min Rain = 0
KES1 121852Z 34004KT 18/05 A3034 RMK A01 T01780046  RH  042%=      5-min Rain = 0
KES1 121853Z 00004KT 18/05 A3033 RMK A01 T01770048  RH  042%=      5-min Rain = 0
KES1 121854Z 34008KT 18/05 A3033 RMK A01 T01790049  RH  042%=      5-min Rain = 0
KES1 121855Z 00006KT 18/05 A3033 RMK A01 T01810047  RH  041%=      5-min Rain = 0
KES1 121856Z 36003G8KT 18/05 A3033 RMK A01 T01800046  RH  041%=      5-min Rain = 0
KES1 121857Z 05004KT 18/05 A3033 RMK A01 T01790046  RH  041%=      5-min Rain = 0
KES1 121858Z 06008G13KT 18/05 A3033 RMK A01 T01800052  RH  043%=      5-min Rain = 0
KES1 121859Z 05011KT 18/05 A3033 RMK A01 T01840051  RH  042%=      5-min Rain = 0
KES1 121900Z 06008KT 18/05 A3033 RMK A01 T01840048  RH  041%=      5-min Rain = 0
KES1 121901Z 06007KT 18/05 A3033 RMK A01 T01820046  RH  041%=      5-min Rain = 0
KES1 121902Z 06007KT 18/05 A3033 RMK A01 T01810050  RH  042%=      5-min Rain = 0
KES1 121903Z 06009KT 18/05 A3033 RMK A01 T01830050  RH  041%=      5-min Rain = 0
KES1 121904Z 05009KT 19/05 A3033 RMK A01 T01850051  RH  041%=      5-min Rain = 0
KES1 121905Z 03008KT 19/05 A3033 RMK A01 T01860050  RH  041%=      5-min Rain = 0
KES1 121906Z 03008KT 18/05 A3033 RMK A01 T01830046  RH  040%=      5-min Rain = 0
KES1 121907Z 03007KT 18/05 A3033 RMK A01 T01820049  RH  041%=      5-min Rain = 0
KES1 121908Z 04009KT 19/05 A3033 RMK A01 T01850048  RH  040%=      5-min Rain = 0
KES1 121909Z 05007KT 19/05 A3033 RMK A01 T01870048  RH  040%=      5-min Rain = 0
KES1 121910Z 03006KT 19/05 A3033 RMK A01 T01900047  RH  039%=      5-min Rain = 0
KES1 121911Z 04008KT 19/05 A3033 RMK A01 T01880047  RH  039%=      5-min Rain = 0
KES1 121912Z 04007KT 19/05 A3033 RMK A01 T01880046  RH  039%=      5-min Rain = 0
KES1 121913Z 01006KT 19/05 A3033 RMK A01 T01890050  RH  040%=      5-min Rain = 0
KES1 121914Z 04009KT 19/05 A3033 RMK A01 T01930051  RH  039%=      5-min Rain = 0
KES1 121915Z 02011KT 19/05 A3033 RMK A01 T01940049  RH  038%=      5-min Rain = 0
KES1 121916Z 02010KT 19/05 A3033 RMK A01 T01920045  RH  038%=      5-min Rain = 0
KES1 121917Z 03009KT 19/05 A3033 RMK A01 T01870045  RH  039%=      5-min Rain = 0
KES1 121918Z 04004KT 19/05 A3033 RMK A01 T01870045  RH  039%=      5-min Rain = 0
KES1 121919Z 04002KT 19/05 A3033 RMK A01 T01870046  RH  039%=      5-min Rain = 0
KES1 121920Z 34004KT 19/04 A3032 RMK A01 T01870043  RH  038%=      5-min Rain = 0
KES1 121921Z 34002KT 19/04 A3032 RMK A01 T01860043  RH  039%=      5-min Rain = 0
KES1 121922Z 36003KT 19/04 A3032 RMK A01 T01860042  RH  038%=      5-min Rain = 0
KES1 121923Z 35008KT 19/05 A3032 RMK A01 T01860046  RH  039%=      5-min Rain = 0
KES1 121924Z 34007KT 19/04 A3032 RMK A01 T01880043  RH  038%=      5-min Rain = 0
KES1 121925Z 31008KT 19/05 A3032 RMK A01 T01880047  RH  039%=      5-min Rain = 0
KES1 121926Z 29006KT 19/04 A3032 RMK A01 T01890044  RH  038%=      5-min Rain = 0
KES1 121927Z 31005KT 19/05 A3032 RMK A01 T01890047  RH  039%=      5-min Rain = 0
KES1 121928Z 32004KT 19/05 A3032 RMK A01 T01910048  RH  039%=      5-min Rain = 0
KES1 121929Z 03007KT 19/05 A3032 RMK A01 T01930048  RH  039%=      5-min Rain = 0
KES1 121930Z 06007KT 20/06 A3032 RMK A01 T01970055  RH  039%=      5-min Rain = 0
KES1 121931Z 07008KT 20/06 A3032 RMK A01 T02010055  RH  038%=      5-min Rain = 0
KES1 121932Z 06012KT 20/05 A3032 RMK A01 T02040053  RH  037%=      5-min Rain = 0
KES1 121933Z 07010KT 20/05 A3032 RMK A01 T02010049  RH  037%=      5-min Rain = 0
KES1 121934Z 06011KT 20/05 A3032 RMK A01 T01990050  RH  038%=      5-min Rain = 0
KES1 121935Z 06007KT 20/05 A3032 RMK A01 T01950046  RH  037%=      5-min Rain = 0
KES1 121936Z 06009KT 19/05 A3032 RMK A01 T01910045  RH  038%=      5-min Rain = 0
KES1 121937Z 06005KT 19/05 A3032 RMK A01 T01870045  RH  039%=      5-min Rain = 0
KES1 121938Z 06004KT 19/05 A3032 RMK A01 T01880050  RH  040%=      5-min Rain = 0
KES1 121939Z 33007G12KT 19/05 A3032 RMK A01 T01920050  RH  039%=      5-min Rain = 0
KES1 121940Z 02008KT 19/05 A3032 RMK A01 T01940047  RH  038%=      5-min Rain = 0
KES1 121941Z 05009KT 19/05 A3032 RMK A01 T01930048  RH  038%=      5-min Rain = 0
KES1 121942Z 05006KT 19/05 A3032 RMK A01 T01910048  RH  039%=      5-min Rain = 0
KES1 121943Z 04011KT 19/05 A3032 RMK A01 T01930052  RH  039%=      5-min Rain = 0
KES1 121944Z 03007KT 20/05 A3032 RMK A01 T01970050  RH  038%=      5-min Rain = 0
KES1 121945Z 34006KT 20/05 A3032 RMK A01 T01960046  RH  037%=      5-min Rain = 0
KES1 121946Z 04006G11KT 19/05 A3032 RMK A01 T01930045  RH  038%=      5-min Rain = 0
KES1 121947Z 06007KT 19/05 A3032 RMK A01 T01920047  RH  038%=      5-min Rain = 0
KES1 121948Z 07004KT 19/05 A3032 RMK A01 T01920046  RH  038%=      5-min Rain = 0
KES1 121949Z 07005KT 19/05 A3032 RMK A01 T01910046  RH  038%=      5-min Rain = 0
KES1 121950Z 03004KT 19/05 A3032 RMK A01 T01920046  RH  038%=      5-min Rain = 0
KES1 121951Z 09003KT 19/04 A3032 RMK A01 T01920044  RH  038%=      5-min Rain = 0
KES1 121952Z 08002KT 19/05 A3032 RMK A01 T01910046  RH  038%=      5-min Rain = 0
KES1 121953Z 35003KT 19/05 A3032 RMK A01 T01920048  RH  039%=      5-min Rain = 0
KES1 121954Z 34004KT 19/05 A3031 RMK A01 T01940045  RH  037%=      5-min Rain = 0
KES1 121955Z 35003KT 19/04 A3031 RMK A01 T01930042  RH  037%=      5-min Rain = 0
KES1 121956Z 01004KT 19/04 A3031 RMK A01 T01910042  RH  037%=      5-min Rain = 0
KES1 121957Z 02005KT 19/04 A3031 RMK A01 T01900042  RH  038%=      5-min Rain = 0
KES1 121958Z 03008G13KT 19/04 A3031 RMK A01 T01900044  RH  038%=      5-min Rain = 0
KES1 121959Z 02009G15KT 19/05 A3031 RMK A01 T01920047  RH  038%=      5-min Rain = 0
KES1 122000Z 04010KT 20/05 A3031 RMK A01 T01960048  RH  038%=      5-min Rain = 0
KES1 122001Z 03007KT 20/05 A3031 RMK A01 T01970048  RH  037%=      5-min Rain = 0
KES1 122002Z 01006KT 20/05 A3031 RMK A01 T02000050  RH  037%=      5-min Rain = 0
KES1 122003Z 35006KT 20/05 A3031 RMK A01 T02030047  RH  036%=      5-min Rain = 0
KES1 122004Z 35005KT 20/04 A3031 RMK A01 T02000042  RH  035%=      5-min Rain = 0
KES1 122005Z 35011KT 20/05 A3031 RMK A01 T01980045  RH  036%=      5-min Rain = 0
KES1 122006Z 35009KT 20/04 A3031 RMK A01 T01980043  RH  036%=      5-min Rain = 0
KES1 122007Z 35008KT 20/05 A3031 RMK A01 T01980045  RH  036%=      5-min Rain = 0
KES1 122008Z 35007KT 20/04 A3031 RMK A01 T01990043  RH  036%=      5-min Rain = 0
KES1 122009Z 36004KT 20/04 A3031 RMK A01 T01970041  RH  036%=      5-min Rain = 0
KES1 122010Z 04002KT 19/04 A3031 RMK A01 T01940041  RH  036%=      5-min Rain = 0
KES1 122011Z 06004KT 19/04 A3031 RMK A01 T01940043  RH  037%=      5-min Rain = 0
KES1 122012Z 08006KT 20/05 A3031 RMK A01 T01960050  RH  038%=      5-min Rain = 0
KES1 122013Z 08007KT 20/05 A3031 RMK A01 T02020051  RH  037%=      5-min Rain = 0
KES1 122014Z 08006KT 20/05 A3031 RMK A01 T02040051  RH  037%=      5-min Rain = 0
KES1 122015Z 05008KT 21/05 A3031 RMK A01 T02060052  RH  036%=      5-min Rain = 0
KES1 122016Z 05006KT 21/05 A3031 RMK A01 T02080050  RH  036%=      5-min Rain = 0
KES1 122017Z 01007KT 21/05 A3031 RMK A01 T02080050  RH  035%=      5-min Rain = 0
KES1 122018Z 35007KT 21/05 A3031 RMK A01 T02080047  RH  035%=      5-min Rain = 0
KES1 122019Z 01008KT 21/05 A3031 RMK A01 T02080048  RH  035%=      5-min Rain = 0
KES1 122020Z 01003KT 21/04 A3031 RMK A01 T02050042  RH  034%=      5-min Rain = 0
KES1 122021Z 00005G12KT 20/04 A3031 RMK A01 T02010043  RH  035%=      5-min Rain = 0
KES1 122022Z 02010KT 20/05 A3031 RMK A01 T02000046  RH  036%=      5-min Rain = 0
KES1 122023Z 00008G13KT 20/05 A3031 RMK A01 T02030047  RH  036%=      5-min Rain = 0
KES1 122024Z 33007KT 20/04 A3031 RMK A01 T02020043  RH  035%=      5-min Rain = 0
KES1 122025Z 31005KT 20/04 A303 RMK A01 T02010043  RH  035%=      5-min Rain = 0
KES1 122026Z 34003KT 20/04 A303 RMK A01 T01990042  RH  036%=      5-min Rain = 0
KES1 122027Z 01005KT 20/04 A303 RMK A01 T01980044  RH  036%=      5-min Rain = 0
KES1 122028Z 05008KT 20/05 A303 RMK A01 T02010051  RH  037%=      5-min Rain = 0
KES1 122029Z 06010KT 21/05 A303 RMK A01 T02070054  RH  037%=      5-min Rain = 0
KES1 122030Z 07010KT 21/05 A303 RMK A01 T02100051  RH  035%=      5-min Rain = 0
KES1 122031Z 06009KT 21/05 A303 RMK A01 T02090050  RH  035%=      5-min Rain = 0
KES1 122032Z 02008KT 21/05 A303 RMK A01 T02070050  RH  036%=      5-min Rain = 0
KES1 122033Z 03008KT 20/05 A303 RMK A01 T02040045  RH  035%=      5-min Rain = 0
KES1 122034Z 05004KT 20/05 A303 RMK A01 T02000045  RH  036%=      5-min Rain = 0
KES1 122035Z 06005KT 20/05 A303 RMK A01 T01990050  RH  038%=      5-min Rain = 0
KES1 122036Z 05008KT 20/05 A303 RMK A01 T02010049  RH  037%=      5-min Rain = 0
KES1 122037Z 02005KT 20/05 A303 RMK A01 T02010048  RH  037%=      5-min Rain = 0
KES1 122038Z 00005KT 20/05 A303 RMK A01 T02000045  RH  036%=      5-min Rain = 0
KES1 122039Z 03004KT 20/05 A303 RMK A01 T01980046  RH  037%=      5-min Rain = 0
KES1 122040Z 03007G12KT 20/05 A303 RMK A01 T01980047  RH  037%=      5-min Rain = 0
KES1 122041Z 05010KT 20/05 A303 RMK A01 T02000052  RH  038%=      5-min Rain = 0
KES1 122042Z 05013KT 21/05 A303 RMK A01 T02050052  RH  037%=      5-min Rain = 0
KES1 122043Z 05012KT 21/05 A3029 RMK A01 T02070052  RH  036%=      5-min Rain = 0
KES1 122044Z 05013KT 21/05 A3029 RMK A01 T02080051  RH  036%=      5-min Rain = 0
KES1 122045Z 06010KT 21/05 A303 RMK A01 T02070051  RH  036%=      5-min Rain = 0
KES1 122046Z 05008KT 20/05 A303 RMK A01 T02040049  RH  036%=      5-min Rain = 0
KES1 122047Z 04004KT 20/05 A303 RMK A01 T01990047  RH  037%=      5-min Rain = 0
KES1 122048Z 04004KT 20/05 A303 RMK A01 T01970048  RH  037%=      5-min Rain = 0
KES1 122049Z 05005KT 20/05 A3029 RMK A01 T01980050  RH  038%=      5-min Rain = 0
KES1 122050Z 06008KT 20/05 A3029 RMK A01 T02000053  RH  038%=      5-min Rain = 0
KES1 122051Z 07009KT 20/05 A3029 RMK A01 T02010050  RH  037%=      5-min Rain = 0
KES1 122052Z 06008KT 20/05 A3029 RMK A01 T01990050  RH  038%=      5-min Rain = 0
KES1 122053Z 06010KT 20/05 A3029 RMK A01 T01980049  RH  038%=      5-min Rain = 0
KES1 122054Z 04010KT 20/05 A3029 RMK A01 T01950047  RH  038%=      5-min Rain = 0
KES1 122055Z 05008KT 19/05 A3029 RMK A01 T01940047  RH  038%=      5-min Rain = 0
KES1 122056Z 04007KT 20/05 A3029 RMK A01 T01970050  RH  038%=      5-min Rain = 0
KES1 122057Z 03010KT 20/05 A3029 RMK A01 T02020050  RH  037%=      5-min Rain = 0
KES1 122058Z 01010KT 20/05 A3029 RMK A01 T02020047  RH  036%=      5-min Rain = 0
KES1 122059Z 00010KT 20/05 A3029 RMK A01 T02030049  RH  036%=      5-min Rain = 0
KES1 122100Z 01010KT 21/05 A3029 RMK A01 T02050047  RH  035%=      5-min Rain = 0
KES1 122101Z 01010KT 21/05 A3029 RMK A01 T02050045  RH  035%=      5-min Rain = 0
KES1 122102Z 01005KT 20/05 A3029 RMK A01 T02040047  RH  036%=      5-min Rain = 0
KES1 122103Z 02007KT 21/05 A3029 RMK A01 T02050046  RH  035%=      5-min Rain = 0
KES1 122104Z 04006KT 21/05 A3029 RMK A01 T02050049  RH  036%=      5-min Rain = 0
KES1 122105Z 04007KT 21/05 A3029 RMK A01 T02070049  RH  035%=      5-min Rain = 0
KES1 122106Z 06007G12KT 21/05 A3029 RMK A01 T02070047  RH  035%=      5-min Rain = 0
KES1 122107Z 03007KT 21/05 A3029 RMK A01 T02070047  RH  035%=      5-min Rain = 0
KES1 122108Z 01009KT 21/05 A3029 RMK A01 T02070046  RH  035%=      5-min Rain = 0
KES1 122109Z 03008G15KT 21/04 A3029 RMK A01 T02070043  RH  034%=      5-min Rain = 0
KES1 122110Z 06013KT 21/05 A3029 RMK A01 T02060046  RH  035%=      5-min Rain = 0
KES1 122111Z 07008KT 21/05 A3029 RMK A01 T02080050  RH  036%=      5-min Rain = 0
KES1 122112Z 05013G19KT 21/05 A3029 RMK A01 T02110048  RH  034%=      5-min Rain = 0
KES1 122113Z 03010KT 21/05 A3029 RMK A01 T02120048  RH  034%=      5-min Rain = 0
KES1 122114Z 04007KT 21/05 A3029 RMK A01 T02130048  RH  034%=      5-min Rain = 0
KES1 122115Z 05009KT 21/05 A3029 RMK A01 T02140047  RH  034%=      5-min Rain = 0
KES1 122116Z 04010KT 21/05 A3029 RMK A01 T02130046  RH  034%=      5-min Rain = 0
KES1 122117Z 05008KT 21/05 A3029 RMK A01 T02120045  RH  033%=      5-min Rain = 0
KES1 122118Z 06006KT 21/05 A3029 RMK A01 T02100046  RH  034%=      5-min Rain = 0
KES1 122119Z 09007KT 21/04 A3028 RMK A01 T02090044  RH  034%=      5-min Rain = 0
KES1 122120Z 09005KT 21/04 A3028 RMK A01 T02060042  RH  034%=      5-min Rain = 0
KES1 122121Z 03007KT 21/05 A3028 RMK A01 T02050046  RH  035%=      5-min Rain = 0
KES1 122122Z 01005KT 21/05 A3028 RMK A01 T02070045  RH  035%=      5-min Rain = 0
KES1 122123Z 03007KT 21/05 A3028 RMK A01 T02080045  RH  034%=      5-min Rain = 0
KES1 122124Z 02010KT 21/05 A3028 RMK A01 T02080046  RH  034%=      5-min Rain = 0
KES1 122125Z 03009KT 21/05 A3028 RMK A01 T02090045  RH  034%=      5-min Rain = 0
KES1 122126Z 02008KT 21/05 A3028 RMK A01 T02100045  RH  034%=      5-min Rain = 0
KES1 122127Z 36010KT 21/04 A3028 RMK A01 T02100044  RH  034%=      5-min Rain = 0
KES1 122128Z 01008KT 21/04 A3028 RMK A01 T02100044  RH  034%=      5-min Rain = 0
KES1 122129Z 01003KT 21/04 A3028 RMK A01 T02090042  RH  033%=      5-min Rain = 0
KES1 122130Z 04007KT 21/05 A3028 RMK A01 T02070046  RH  035%=      5-min Rain = 0
KES1 122131Z 01006KT 21/04 A3028 RMK A01 T02070043  RH  034%=      5-min Rain = 0
KES1 122132Z 35003KT 20/04 A3028 RMK A01 T02040041  RH  034%=      5-min Rain = 0
KES1 122133Z 02010G17KT 20/04 A3028 RMK A01 T02030043  RH  035%=      5-min Rain = 0
KES1 122134Z 01011G17KT 21/05 A3028 RMK A01 T02060046  RH  035%=      5-min Rain = 0
KES1 122135Z 02009KT 21/05 A3028 RMK A01 T02090047  RH  035%=      5-min Rain = 0
KES1 122136Z 02008KT 21/05 A3028 RMK A01 T02110047  RH  034%=      5-min Rain = 0
KES1 122137Z 03005KT 21/04 A3028 RMK A01 T02100043  RH  033%=      5-min Rain = 0
KES1 122138Z 05007KT 21/05 A3028 RMK A01 T02080046  RH  034%=      5-min Rain = 0
KES1 122139Z 05010KT 21/05 A3028 RMK A01 T02090047  RH  035%=      5-min Rain = 0
KES1 122140Z 04008KT 21/05 A3028 RMK A01 T02090046  RH  034%=      5-min Rain = 0
KES1 122141Z 01009KT 21/05 A3028 RMK A01 T02110048  RH  034%=      5-min Rain = 0
KES1 122142Z 01009KT 21/04 A3028 RMK A01 T02130044  RH  033%=      5-min Rain = 0
KES1 122143Z 36008KT 21/04 A3028 RMK A01 T02090042  RH  034%=      5-min Rain = 0
KES1 122144Z 35009KT 21/04 A3028 RMK A01 T02080044  RH  034%=      5-min Rain = 0
KES1 122145Z 02009KT 21/05 A3028 RMK A01 T02100046  RH  034%=      5-min Rain = 0
KES1 122146Z 01010KT 21/05 A3028 RMK A01 T02130046  RH  034%=      5-min Rain = 0
KES1 122147Z 02010KT 21/05 A3028 RMK A01 T02110045  RH  034%=      5-min Rain = 0
KES1 122148Z 03007KT 21/05 A3028 RMK A01 T02100045  RH  034%=      5-min Rain = 0
KES1 122149Z 04004KT 21/05 A3028 RMK A01 T02090045  RH  034%=      5-min Rain = 0
KES1 122150Z 05004KT 21/04 A3027 RMK A01 T02080042  RH  034%=      5-min Rain = 0
KES1 122151Z 35005KT 21/04 A3027 RMK A01 T02060044  RH  034%=      5-min Rain = 0
KES1 122152Z 01010KT 21/05 A3028 RMK A01 T02070045  RH  034%=      5-min Rain = 0
KES1 122153Z 03008KT 21/04 A3027 RMK A01 T02070043  RH  034%=      5-min Rain = 0
KES1 122154Z 03008KT 21/05 A3027 RMK A01 T02060045  RH  035%=      5-min Rain = 0
KES1 122155Z 02010KT 21/04 A3027 RMK A01 T02050044  RH  035%=      5-min Rain = 0
KES1 122156Z 06009KT 21/05 A3027 RMK A01 T02060045  RH  035%=      5-min Rain = 0
KES1 122157Z 04007KT 21/05 A3027 RMK A01 T02080045  RH  034%=      5-min Rain = 0
KES1 122158Z 02008KT 21/05 A3028 RMK A01 T02080045  RH  034%=      5-min Rain = 0
KES1 122159Z 01008KT 21/04 A3027 RMK A01 T02070044  RH  034%=      5-min Rain = 0
KES1 122200Z 00008KT 21/04 A3027 RMK A01 T02070043  RH  034%=      5-min Rain = 0
KES1 122201Z 02008KT 21/04 A3027 RMK A01 T02060043  RH  034%=      5-min Rain = 0
KES1 122202Z 04007KT 21/05 A3027 RMK A01 T02070046  RH  035%=      5-min Rain = 0
KES1 122203Z 07006KT 21/04 A3027 RMK A01 T02090044  RH  034%=      5-min Rain = 0
KES1 122204Z 08004KT 21/04 A3027 RMK A01 T02050040  RH  034%=      5-min Rain = 0
KES1 122205Z 07005KT 20/04 A3027 RMK A01 T02020040  RH  034%=      5-min Rain = 0
KES1 122206Z 04010KT 20/04 A3027 RMK A01 T02010044  RH  036%=      5-min Rain = 0
KES1 122207Z 02011KT 21/05 A3027 RMK A01 T02050047  RH  035%=      5-min Rain = 0
KES1 122208Z 02010KT 21/05 A3027 RMK A01 T02080046  RH  035%=      5-min Rain = 0
KES1 122209Z 01008KT 21/04 A3027 RMK A01 T02070043  RH  034%=      5-min Rain = 0
KES1 122210Z 36007KT 21/04 A3027 RMK A01 T02050043  RH  034%=      5-min Rain = 0
KES1 122211Z 36007KT 21/04 A3027 RMK A01 T02050042  RH  034%=      5-min Rain = 0
KES1 122212Z 03005KT 20/04 A3027 RMK A01 T02040041  RH  034%=      5-min Rain = 0
KES1 122213Z 01007KT 20/05 A3027 RMK A01 T02040045  RH  035%=      5-min Rain = 0
KES1 122214Z 36004KT 21/04 A3027 RMK A01 T02050042  RH  034%=      5-min Rain = 0
KES1 122215Z 01006KT 20/04 A3027 RMK A01 T02040043  RH  035%=      5-min Rain = 0
KES1 122216Z 05003KT 20/04 A3027 RMK A01 T02030042  RH  035%=      5-min Rain = 0
KES1 122217Z 03008KT 20/04 A3027 RMK A01 T02020044  RH  035%=      5-min Rain = 0
KES1 122218Z 01008KT 20/05 A3027 RMK A01 T02040047  RH  036%=      5-min Rain = 0
KES1 122219Z 03008KT 21/05 A3027 RMK A01 T02080047  RH  035%=      5-min Rain = 0
KES1 122220Z 03007KT 21/05 A3027 RMK A01 T02090046  RH  034%=      5-min Rain = 0
KES1 122221Z 03006KT 21/05 A3027 RMK A01 T02080045  RH  034%=      5-min Rain = 0
KES1 122222Z 04004KT 21/05 A3027 RMK A01 T02060045  RH  035%=      5-min Rain = 0
KES1 122223Z 06002KT 21/04 A3027 RMK A01 T02060044  RH  035%=      5-min Rain = 0
KES1 122224Z 06005KT 21/05 A3027 RMK A01 T02060045  RH  035%=      5-min Rain = 0
KES1 122225Z 05007KT 21/05 A3027 RMK A01 T02050045  RH  035%=      5-min Rain = 0
KES1 122226Z 06004KT 20/04 A3027 RMK A01 T02040043  RH  035%=      5-min Rain = 0
KES1 122227Z 04005KT 20/05 A3027 RMK A01 T02020045  RH  035%=      5-min Rain = 0
KES1 122228Z 03008KT 20/05 A3027 RMK A01 T02040046  RH  035%=      5-min Rain = 0
KES1 122229Z 04008G13KT 21/05 A3027 RMK A01 T02070046  RH  035%=      5-min Rain = 0
KES1 122230Z 04010KT 21/05 A3027 RMK A01 T02100045  RH  034%=      5-min Rain = 0
KES1 122231Z 04007KT 21/04 A3027 RMK A01 T02100043  RH  033%=      5-min Rain = 0
KES1 122232Z 05009KT 21/04 A3027 RMK A01 T02090044  RH  034%=      5-min Rain = 0
KES1 122233Z 06007KT 21/04 A3027 RMK A01 T02060040  RH  033%=      5-min Rain = 0
KES1 122234Z 05005KT 20/04 A3027 RMK A01 T02030041  RH  034%=      5-min Rain = 0
KES1 122235Z 01007KT 20/04 A3027 RMK A01 T02040043  RH  035%=      5-min Rain = 0
KES1 122236Z 01006KT 21/04 A3027 RMK A01 T02060040  RH  033%=      5-min Rain = 0
KES1 122237Z 03004KT 21/04 A3027 RMK A01 T02060039  RH  033%=      5-min Rain = 0
KES1 122238Z 05006KT 21/04 A3027 RMK A01 T02060042  RH  034%=      5-min Rain = 0
KES1 122239Z 06008KT 21/04 A3026 RMK A01 T02060042  RH  034%=      5-min Rain = 0
KES1 122240Z 06008KT 21/04 A3026 RMK A01 T02050043  RH  034%=      5-min Rain = 0
KES1 122241Z 01007KT 21/04 A3026 RMK A01 T02050043  RH  034%=      5-min Rain = 0
KES1 122242Z 01006KT 21/04 A3027 RMK A01 T02050043  RH  034%=      5-min Rain = 0
KES1 122243Z 00008KT 21/04 A3027 RMK A01 T02050043  RH  035%=      5-min Rain = 0
KES1 122244Z 00009KT 21/04 A3027 RMK A01 T02060043  RH  034%=      5-min Rain = 0
KES1 122245Z 01009G15KT 21/05 A3027 RMK A01 T02080045  RH  034%=      5-min Rain = 0
KES1 122246Z 01009KT 21/04 A3027 RMK A01 T02080044  RH  034%=      5-min Rain = 0
KES1 122247Z 00007KT 21/04 A3026 RMK A01 T02060044  RH  034%=      5-min Rain = 0
KES1 122248Z 00006KT 21/05 A3026 RMK A01 T02060045  RH  035%=      5-min Rain = 0
KES1 122249Z 02008KT 21/05 A3026 RMK A01 T02080046  RH  035%=      5-min Rain = 0
KES1 122250Z 05009KT 21/05 A3026 RMK A01 T02090047  RH  035%=      5-min Rain = 0
KES1 122251Z 05008KT 21/05 A3026 RMK A01 T02090048  RH  035%=      5-min Rain = 0
KES1 122252Z 04011KT 21/05 A3026 RMK A01 T02090049  RH  035%=      5-min Rain = 0
KES1 122253Z 03008KT 21/05 A3026 RMK A01 T02100048  RH  034%=      5-min Rain = 0
KES1 122254Z 02007KT 21/05 A3026 RMK A01 T02100046  RH  034%=      5-min Rain = 0
KES1 122255Z 01005KT 21/05 A3026 RMK A01 T02080045  RH  034%=      5-min Rain = 0
KES1 122256Z 36006KT 21/05 A3026 RMK A01 T02070045  RH  035%=      5-min Rain = 0
KES1 122257Z 03008KT 21/05 A3026 RMK A01 T02070046  RH  035%=      5-min Rain = 0
KES1 122258Z 05008KT 21/05 A3026 RMK A01 T02080047  RH  035%=      5-min Rain = 0
KES1 122259Z 04007KT 21/05 A3026 RMK A01 T02090047  RH  035%=      5-min Rain = 0
KES1 122300Z 04007KT 21/05 A3026 RMK A01 T02080046  RH  035%=      5-min Rain = 0
KES1 122301Z 05011KT 21/05 A3026 RMK A01 T02070046  RH  035%=      5-min Rain = 0
KES1 122302Z 05010KT 21/05 A3026 RMK A01 T02060047  RH  035%=      5-min Rain = 0
KES1 122303Z 06012G17KT 21/05 A3026 RMK A01 T02050049  RH  036%=      5-min Rain = 0
KES1 122304Z 05013KT 21/05 A3026 RMK A01 T02060050  RH  036%=      5-min Rain = 0
KES1 122305Z 05013KT 21/05 A3026 RMK A01 T02060050  RH  036%=      5-min Rain = 0
KES1 122306Z 05011KT 21/05 A3026 RMK A01 T02050050  RH  036%=      5-min Rain = 0
KES1 122307Z 05010KT 21/05 A3026 RMK A01 T02050050  RH  036%=      5-min Rain = 0
KES1 122308Z 05009KT 20/05 A3026 RMK A01 T02040048  RH  036%=      5-min Rain = 0
KES1 122309Z 05007KT 20/05 A3026 RMK A01 T02040050  RH  036%=      5-min Rain = 0
KES1 122310Z 07008KT 21/05 A3026 RMK A01 T02050052  RH  037%=      5-min Rain = 0
KES1 122311Z 07006KT 21/05 A3026 RMK A01 T02050051  RH  036%=      5-min Rain = 0
KES1 122312Z 05004KT 20/05 A3026 RMK A01 T02040053  RH  037%=      5-min Rain = 0
KES1 122313Z 02004KT 20/05 A3026 RMK A01 T02040053  RH  037%=      5-min Rain = 0
KES1 122314Z 03006KT 20/05 A3026 RMK A01 T02030051  RH  037%=      5-min Rain = 0
KES1 122315Z 02006KT 20/05 A3026 RMK A01 T02000048  RH  037%=      5-min Rain = 0
KES1 122316Z 06010KT 20/05 A3026 RMK A01 T01990049  RH  037%=      5-min Rain = 0
KES1 122317Z 06006KT 20/05 A3026 RMK A01 T01970049  RH  038%=      5-min Rain = 0
KES1 122318Z 06006KT 20/05 A3026 RMK A01 T01980051  RH  038%=      5-min Rain = 0
KES1 122319Z 06010G17KT 20/05 A3026 RMK A01 T01990052  RH  038%=      5-min Rain = 0
KES1 122320Z 06014KT 20/05 A3026 RMK A01 T02020052  RH  037%=      5-min Rain = 0
KES1 122321Z 07012KT 20/05 A3026 RMK A01 T02030051  RH  037%=      5-min Rain = 0
KES1 122322Z 06012KT 20/05 A3026 RMK A01 T02030051  RH  037%=      5-min Rain = 0
KES1 122323Z 06011KT 20/05 A3026 RMK A01 T02030051  RH  037%=      5-min Rain = 0
KES1 122324Z 06010KT 20/05 A3026 RMK A01 T02030052  RH  037%=      5-min Rain = 0
KES1 122325Z 06010KT 20/05 A3026 RMK A01 T02030051  RH  037%=      5-min Rain = 0
KES1 122326Z 06010KT 20/05 A3026 RMK A01 T02020053  RH  037%=      5-min Rain = 0
KES1 122327Z 05010KT 20/05 A3026 RMK A01 T02030053  RH  037%=      5-min Rain = 0
KES1 122328Z 05010KT 20/05 A3026 RMK A01 T02020050  RH  037%=      5-min Rain = 0
KES1 122329Z 07011KT 20/05 A3026 RMK A01 T02010051  RH  037%=      5-min Rain = 0
KES1 122330Z 06010KT 20/05 A3026 RMK A01 T02010051  RH  037%=      5-min Rain = 0
KES1 122331Z 05011KT 20/05 A3026 RMK A01 T02010051  RH  037%=      5-min Rain = 0
KES1 122332Z 05010KT 20/05 A3026 RMK A01 T02010050  RH  037%=      5-min Rain = 0
KES1 122333Z 05009KT 20/05 A3026 RMK A01 T02000050  RH  037%=      5-min Rain = 0
KES1 122334Z 05008KT 20/05 A3026 RMK A01 T01990050  RH  037%=      5-min Rain = 0
KES1 122335Z 04010KT 20/05 A3026 RMK A01 T02000051  RH  038%=      5-min Rain = 0
KES1 122336Z 04009KT 20/05 A3026 RMK A01 T02010051  RH  037%=      5-min Rain = 0
KES1 122337Z 04008KT 20/05 A3026 RMK A01 T02020050  RH  037%=      5-min Rain = 0
KES1 122338Z 03009KT 20/05 A3026 RMK A01 T02020050  RH  037%=      5-min Rain = 0
KES1 122339Z 02011KT 20/05 A3026 RMK A01 T02030050  RH  037%=      5-min Rain = 0
KES1 122340Z 01009KT 20/05 A3026 RMK A01 T02030049  RH  036%=      5-min Rain = 0
KES1 122341Z 03009KT 20/05 A3026 RMK A01 T02030049  RH  036%=      5-min Rain = 0
KES1 122342Z 02009KT 20/05 A3026 RMK A01 T02030050  RH  037%=      5-min Rain = 0
KES1 122343Z 01009KT 20/05 A3026 RMK A01 T02040050  RH  037%=      5-min Rain = 0
KES1 122344Z 01009KT 20/05 A3026 RMK A01 T02040049  RH  036%=      5-min Rain = 0
KES1 122345Z 01010KT 20/05 A3026 RMK A01 T02030049  RH  036%=      5-min Rain = 0
KES1 122346Z 03010KT 20/05 A3026 RMK A01 T02030049  RH  036%=      5-min Rain = 0
KES1 122347Z 04008KT 20/05 A3026 RMK A01 T02030049  RH  036%=      5-min Rain = 0
KES1 122348Z 02007KT 20/05 A3026 RMK A01 T02030049  RH  036%=      5-min Rain = 0
KES1 122349Z 03009KT 20/05 A3026 RMK A01 T02040051  RH  037%=      5-min Rain = 0
KES1 122350Z 07008KT 20/06 A3026 RMK A01 T02040055  RH  038%=      5-min Rain = 0
KES1 122351Z 06008KT 20/06 A3026 RMK A01 T02030056  RH  038%=      5-min Rain = 0
KES1 122352Z 06013KT 20/06 A3026 RMK A01 T02020056  RH  038%=      5-min Rain = 0
KES1 122353Z 07010KT 20/06 A3026 RMK A01 T01990055  RH  039%=      5-min Rain = 0
KES1 122354Z 07012KT 20/06 A3026 RMK A01 T01980056  RH  039%=      5-min Rain = 0
KES1 122355Z 08009KT 20/05 A3026 RMK A01 T01960054  RH  039%=      5-min Rain = 0
KES1 122356Z 09006KT 19/06 A3026 RMK A01 T01940056  RH  040%=      5-min Rain = 0
KES1 122357Z 08009KT 20/06 A3026 RMK A01 T01950058  RH  041%=      5-min Rain = 0
KES1 122358Z 07013KT 20/06 A3026 RMK A01 T01950057  RH  040%=      5-min Rain = 0
KES1 122359Z 07013KT 20/06 A3026 RMK A01 T01960056  RH  040%=      5-min Rain = 0
KES1 130000Z 08011KT 20/06 A3026 RMK A01 T01950055  RH  040%=      5-min Rain = 0
KES1 130001Z 07012KT 20/06 A3026 RMK A01 T01950055  RH  040%=      5-min Rain = 0
KES1 130002Z 08011KT 20/06 A3026 RMK A01 T01960056  RH  040%=      5-min Rain = 0
KES1 130003Z 05011KT 20/06 A3026 RMK A01 T01960056  RH  040%=      5-min Rain = 0
KES1 130004Z 06009KT 20/05 A3026 RMK A01 T01960054  RH  039%=      5-min Rain = 0
KES1 130005Z 06007KT 20/06 A3026 RMK A01 T01950055  RH  040%=      5-min Rain = 0
KES1 130006Z 05013KT 20/06 A3026 RMK A01 T01950055  RH  040%=      5-min Rain = 0
KES1 130007Z 05011KT 20/05 A3026 RMK A01 T01950054  RH  040%=      5-min Rain = 0
KES1 130008Z 05011KT 19/06 A3026 RMK A01 T01940056  RH  040%=      5-min Rain = 0
KES1 130009Z 07010KT 19/06 A3026 RMK A01 T01930057  RH  041%=      5-min Rain = 0
KES1 130010Z 06013KT 19/06 A3026 RMK A01 T01910057  RH  041%=      5-min Rain = 0
KES1 130011Z 06011KT 19/06 A3026 RMK A01 T01890056  RH  042%=      5-min Rain = 0
KES1 130012Z 08011KT 19/06 A3026 RMK A01 T01890057  RH  042%=      5-min Rain = 0
KES1 130013Z 08012KT 19/06 A3026 RMK A01 T01890057  RH  042%=      5-min Rain = 0
KES1 130014Z 07010KT 19/06 A3026 RMK A01 T01890057  RH  042%=      5-min Rain = 0
KES1 130015Z 06007KT 19/06 A3026 RMK A01 T01890058  RH  042%=      5-min Rain = 0
KES1 130016Z 05008KT 19/06 A3026 RMK A01 T01910059  RH  042%=      5-min Rain = 0
KES1 130017Z 04007KT 19/06 A3026 RMK A01 T01920057  RH  041%=      5-min Rain = 0
KES1 130018Z 05008KT 19/06 A3026 RMK A01 T01930057  RH  041%=      5-min Rain = 0
KES1 130019Z 07010KT 19/06 A3026 RMK A01 T01930058  RH  041%=      5-min Rain = 0
KES1 130020Z 07010KT 19/06 A3026 RMK A01 T01920056  RH  041%=      5-min Rain = 0
KES1 130021Z 07009KT 19/06 A3027 RMK A01 T01900057  RH  042%=      5-min Rain = 0
KES1 130022Z 07009KT 19/06 A3027 RMK A01 T01890056  RH  042%=      5-min Rain = 0
KES1 130023Z 07007KT 19/06 A3027 RMK A01 T01890057  RH  042%=      5-min Rain = 0
KES1 130024Z 07009KT 19/06 A3027 RMK A01 T01890058  RH  042%=      5-min Rain = 0
KES1 130025Z 06010KT 19/06 A3027 RMK A01 T01890058  RH  042%=      5-min Rain = 0
KES1 130026Z 05009KT 19/06 A3027 RMK A01 T01880058  RH  042%=      5-min Rain = 0
KES1 130027Z 06008KT 19/06 A3027 RMK A01 T01870057  RH  042%=      5-min Rain = 0
KES1 130028Z 06010KT 19/06 A3027 RMK A01 T01870057  RH  042%=      5-min Rain = 0
KES1 130029Z 06009KT 19/06 A3027 RMK A01 T01860055  RH  042%=      5-min Rain = 0
KES1 130030Z 06009KT 19/06 A3027 RMK A01 T01850056  RH  043%=      5-min Rain = 0
KES1 130031Z 07009KT 18/06 A3027 RMK A01 T01840056  RH  043%=      5-min Rain = 0
KES1 130032Z 07009G15KT 18/06 A3027 RMK A01 T01840056  RH  043%=      5-min Rain = 0
KES1 130033Z 07012KT 18/06 A3027 RMK A01 T01840057  RH  043%=      5-min Rain = 0
KES1 130034Z 07011KT 18/06 A3027 RMK A01 T01840057  RH  043%=      5-min Rain = 0
KES1 130035Z 07011KT 18/06 A3027 RMK A01 T01840056  RH  043%=      5-min Rain = 0
KES1 130036Z 08009KT 19/06 A3027 RMK A01 T01850057  RH  043%=      5-min Rain = 0
KES1 130037Z 07009KT 19/06 A3027 RMK A01 T01850058  RH  043%=      5-min Rain = 0
KES1 130038Z 08010KT 19/06 A3027 RMK A01 T01850058  RH  043%=      5-min Rain = 0
KES1 130039Z 08010KT 19/06 A3027 RMK A01 T01860058  RH  043%=      5-min Rain = 0
KES1 130040Z 07010KT 19/06 A3027 RMK A01 T01850058  RH  043%=      5-min Rain = 0
KES1 130041Z 07009KT 19/06 A3027 RMK A01 T01850058  RH  043%=      5-min Rain = 0
KES1 130042Z 07011KT 18/06 A3027 RMK A01 T01840057  RH  043%=      5-min Rain = 0
KES1 130043Z 06010KT 18/06 A3027 RMK A01 T01840058  RH  044%=      5-min Rain = 0
KES1 130044Z 06010KT 18/06 A3027 RMK A01 T01840058  RH  044%=      5-min Rain = 0
KES1 130045Z 07011KT 18/06 A3027 RMK A01 T01840057  RH  043%=      5-min Rain = 0
KES1 130046Z 07013KT 18/06 A3027 RMK A01 T01830057  RH  043%=      5-min Rain = 0
KES1 130047Z 07011KT 18/06 A3027 RMK A01 T01830057  RH  044%=      5-min Rain = 0
KES1 130048Z 07010KT 18/06 A3027 RMK A01 T01820057  RH  044%=      5-min Rain = 0
KES1 130049Z 07010KT 18/06 A3027 RMK A01 T01820057  RH  044%=      5-min Rain = 0
KES1 130050Z 07011KT 18/06 A3027 RMK A01 T01820057  RH  044%=      5-min Rain = 0
KES1 130051Z 06010KT 18/06 A3027 RMK A01 T01810058  RH  044%=      5-min Rain = 0
KES1 130052Z 07009KT 18/06 A3027 RMK A01 T01810058  RH  045%=      5-min Rain = 0
KES1 130053Z 07011KT 18/06 A3027 RMK A01 T01810058  RH  045%=      5-min Rain = 0
KES1 130054Z 07010KT 18/06 A3027 RMK A01 T01800058  RH  045%=      5-min Rain = 0
KES1 130055Z 08012KT 18/06 A3027 RMK A01 T01800058  RH  045%=      5-min Rain = 0
KES1 130056Z 07010KT 18/06 A3027 RMK A01 T01800058  RH  045%=      5-min Rain = 0
KES1 130057Z 08009KT 18/06 A3027 RMK A01 T01790058  RH  045%=      5-min Rain = 0
KES1 130058Z 07010KT 18/06 A3027 RMK A01 T01790058  RH  045%=      5-min Rain = 0
KES1 130059Z 07010KT 18/06 A3027 RMK A01 T01780058  RH  045%=      5-min Rain = 0
KES1 130100Z 07008KT 18/06 A3027 RMK A01 T01780057  RH  045%=      5-min Rain = 0
KES1 130101Z 08007KT 18/06 A3027 RMK A01 T01780058  RH  045%=      5-min Rain = 0
KES1 130102Z 07007KT 18/06 A3028 RMK A01 T01770059  RH  046%=      5-min Rain = 0
KES1 130103Z 08009KT 18/06 A3028 RMK A01 T01770058  RH  046%=      5-min Rain = 0
KES1 130104Z 08010KT 18/06 A3028 RMK A01 T01760058  RH  046%=      5-min Rain = 0
KES1 130105Z 07011KT 18/06 A3028 RMK A01 T01760058  RH  046%=      5-min Rain = 0
KES1 130106Z 07010KT 18/06 A3028 RMK A01 T01760058  RH  046%=      5-min Rain = 0
KES1 130107Z 07010KT 18/06 A3028 RMK A01 T01760059  RH  046%=      5-min Rain = 0
KES1 130108Z 08009KT 18/06 A3028 RMK A01 T01750059  RH  046%=      5-min Rain = 0
KES1 130109Z 08008KT 18/06 A3028 RMK A01 T01750060  RH  047%=      5-min Rain = 0
KES1 130110Z 08010KT 18/06 A3028 RMK A01 T01750060  RH  047%=      5-min Rain = 0
KES1 130111Z 08013KT 17/06 A3028 RMK A01 T01740059  RH  047%=      5-min Rain = 0
KES1 130112Z 08011KT 17/06 A3028 RMK A01 T01740060  RH  047%=      5-min Rain = 0
KES1 130113Z 07013KT 17/06 A3028 RMK A01 T01740060  RH  047%=      5-min Rain = 0
KES1 130114Z 07011KT 17/06 A3028 RMK A01 T01730060  RH  047%=      5-min Rain = 0
KES1 130115Z 07014KT 17/06 A3028 RMK A01 T01720060  RH  048%=      5-min Rain = 0
KES1 130116Z 07012KT 17/06 A3028 RMK A01 T01720060  RH  048%=      5-min Rain = 0
KES1 130117Z 07010KT 17/06 A3028 RMK A01 T01720061  RH  048%=      5-min Rain = 0
KES1 130118Z 07010KT 17/06 A3028 RMK A01 T01710060  RH  048%=      5-min Rain = 0
KES1 130119Z 07010KT 17/06 A3028 RMK A01 T01700060  RH  048%=      5-min Rain = 0
KES1 130120Z 07010KT 17/06 A3028 RMK A01 T01700061  RH  049%=      5-min Rain = 0
KES1 130121Z 07009KT 17/06 A3028 RMK A01 T01690061  RH  049%=      5-min Rain = 0
KES1 130122Z 07009KT 17/06 A3028 RMK A01 T01680061  RH  049%=      5-min Rain = 0
KES1 130123Z 07009KT 17/06 A3028 RMK A01 T01680061  RH  049%=      5-min Rain = 0
KES1 130124Z 07008KT 17/06 A3028 RMK A01 T01670061  RH  049%=      5-min Rain = 0
KES1 130125Z 07008KT 17/06 A3028 RMK A01 T01670061  RH  050%=      5-min Rain = 0
KES1 130126Z 07008KT 17/06 A3028 RMK A01 T01660061  RH  050%=      5-min Rain = 0
KES1 130127Z 08008KT 17/06 A3028 RMK A01 T01660061  RH  050%=      5-min Rain = 0
KES1 130128Z 08008KT 17/06 A3028 RMK A01 T01650061  RH  050%=      5-min Rain = 0
KES1 130129Z 08008KT 17/06 A3028 RMK A01 T01650061  RH  050%=      5-min Rain = 0
KES1 130130Z 08008KT 17/06 A3028 RMK A01 T01650061  RH  050%=      5-min Rain = 0
KES1 130131Z 08008KT 16/06 A3028 RMK A01 T01640061  RH  050%=      5-min Rain = 0
KES1 130132Z 08007KT 16/06 A3029 RMK A01 T01640061  RH  051%=      5-min Rain = 0
KES1 130133Z 08006KT 16/06 A3029 RMK A01 T01630061  RH  051%=      5-min Rain = 0
KES1 130134Z 08008KT 16/06 A3029 RMK A01 T01620061  RH  051%=      5-min Rain = 0
KES1 130135Z 08007KT 16/06 A3029 RMK A01 T01610061  RH  051%=      5-min Rain = 0
KES1 130136Z 08007KT 16/06 A3029 RMK A01 T01610061  RH  051%=      5-min Rain = 0
KES1 130137Z 07007KT 16/06 A3029 RMK A01 T01600061  RH  052%=      5-min Rain = 0
KES1 130138Z 08007KT 16/06 A3029 RMK A01 T01600061  RH  052%=      5-min Rain = 0
KES1 130139Z 08006KT 16/06 A3029 RMK A01 T01600062  RH  052%=      5-min Rain = 0
KES1 130140Z 08006KT 16/06 A3029 RMK A01 T01590061  RH  052%=      5-min Rain = 0
KES1 130141Z 08007KT 16/06 A3029 RMK A01 T01590061  RH  052%=      5-min Rain = 0
KES1 130142Z 08006KT 16/06 A3029 RMK A01 T01580061  RH  052%=      5-min Rain = 0
KES1 130143Z 08007KT 16/06 A3029 RMK A01 T01580061  RH  052%=      5-min Rain = 0
KES1 130144Z 08006KT 16/06 A3029 RMK A01 T01580061  RH  053%=      5-min Rain = 0
KES1 130145Z 09007KT 16/06 A3029 RMK A01 T01580062  RH  053%=      5-min Rain = 0
KES1 130146Z 09007KT 16/06 A3029 RMK A01 T01570061  RH  053%=      5-min Rain = 0
KES1 130147Z 09006KT 16/06 A3029 RMK A01 T01570062  RH  053%=      5-min Rain = 0
KES1 130148Z 09007KT 16/06 A3029 RMK A01 T01570062  RH  053%=      5-min Rain = 0
KES1 130149Z 08007KT 16/06 A3029 RMK A01 T01560061  RH  053%=      5-min Rain = 0
KES1 130150Z 09007KT 16/06 A3029 RMK A01 T01560062  RH  053%=      5-min Rain = 0
KES1 130151Z 08006KT 16/06 A3029 RMK A01 T01550061  RH  054%=      5-min Rain = 0
KES1 130152Z 09006KT 16/06 A303 RMK A01 T01550062  RH  054%=      5-min Rain = 0
KES1 130153Z 08007KT 16/06 A303 RMK A01 T01550062  RH  054%=      5-min Rain = 0
KES1 130154Z 09007KT 15/06 A303 RMK A01 T01540062  RH  054%=      5-min Rain = 0
KES1 130155Z 08007KT 15/06 A303 RMK A01 T01540062  RH  054%=      5-min Rain = 0
KES1 130156Z 08006KT 15/06 A303 RMK A01 T01540061  RH  054%=      5-min Rain = 0
KES1 130157Z 08007KT 15/06 A303 RMK A01 T01540062  RH  054%=      5-min Rain = 0
KES1 130158Z 08006KT 15/06 A303 RMK A01 T01530062  RH  054%=      5-min Rain = 0
KES1 130159Z 08007KT 15/06 A303 RMK A01 T01530062  RH  055%=      5-min Rain = 0
KES1 130200Z 08007KT 15/06 A303 RMK A01 T01520062  RH  055%=      5-min Rain = 0
KES1 130201Z 08007KT 15/06 A303 RMK A01 T01520062  RH  055%=      5-min Rain = 0
KES1 130202Z 08006KT 15/06 A303 RMK A01 T01520062  RH  055%=      5-min Rain = 0
KES1 130203Z 09006KT 15/06 A303 RMK A01 T01520062  RH  055%=      5-min Rain = 0
KES1 130204Z 08006KT 15/06 A303 RMK A01 T01510062  RH  055%=      5-min Rain = 0
KES1 130205Z 09006KT 15/06 A303 RMK A01 T01500062  RH  055%=      5-min Rain = 0
KES1 130206Z 09006KT 15/06 A303 RMK A01 T01500062  RH  056%=      5-min Rain = 0
KES1 130207Z 09006KT 15/06 A303 RMK A01 T01490062  RH  056%=      5-min Rain = 0
KES1 130208Z 09006KT 15/06 A303 RMK A01 T01490062  RH  056%=      5-min Rain = 0
KES1 130209Z 09006KT 15/06 A303 RMK A01 T01490062  RH  056%=      5-min Rain = 0
KES1 130210Z 09006KT 15/06 A3031 RMK A01 T01490062  RH  056%=      5-min Rain = 0
KES1 130211Z 09006KT 15/06 A3031 RMK A01 T01480062  RH  056%=      5-min Rain = 0
KES1 130212Z 09005KT 15/06 A3031 RMK A01 T01470062  RH  057%=      5-min Rain = 0
KES1 130213Z 09005KT 15/06 A3031 RMK A01 T01460062  RH  057%=      5-min Rain = 0
KES1 130214Z 09005KT 15/06 A3031 RMK A01 T01460062  RH  057%=      5-min Rain = 0
KES1 130215Z 09006KT 15/06 A3031 RMK A01 T01460062  RH  057%=      5-min Rain = 0
KES1 130216Z 10006KT 15/06 A3031 RMK A01 T01460062  RH  057%=      5-min Rain = 0
KES1 130217Z 10005KT 15/06 A3031 RMK A01 T01460062  RH  057%=      5-min Rain = 0
KES1 130218Z 10006KT 15/06 A3031 RMK A01 T01460062  RH  057%=      5-min Rain = 0
KES1 130219Z 10006KT 15/06 A3031 RMK A01 T01450062  RH  058%=      5-min Rain = 0
KES1 130220Z 10007KT 15/06 A3031 RMK A01 T01450062  RH  058%=      5-min Rain = 0
KES1 130221Z 10006KT 15/06 A3031 RMK A01 T01450062  RH  058%=      5-min Rain = 0
KES1 130222Z 10006KT 15/06 A3031 RMK A01 T01450062  RH  058%=      5-min Rain = 0
KES1 130223Z 10006KT 14/06 A3031 RMK A01 T01440062  RH  058%=      5-min Rain = 0
KES1 130224Z 10007KT 15/06 A3031 RMK A01 T01450062  RH  058%=      5-min Rain = 0
KES1 130225Z 10006KT 15/06 A3031 RMK A01 T01450062  RH  058%=      5-min Rain = 0
KES1 130226Z 10006KT 14/06 A3031 RMK A01 T01440062  RH  058%=      5-min Rain = 0
KES1 130227Z 10005KT 14/06 A3031 RMK A01 T01440062  RH  058%=      5-min Rain = 0
KES1 130228Z 10006KT 14/06 A3031 RMK A01 T01430062  RH  058%=      5-min Rain = 0
KES1 130229Z 10005KT 14/06 A3031 RMK A01 T01430062  RH  058%=      5-min Rain = 0
KES1 130230Z 10006KT 14/06 A3031 RMK A01 T01430062  RH  058%=      5-min Rain = 0
KES1 130231Z 10006KT 14/06 A3031 RMK A01 T01430063  RH  058%=      5-min Rain = 0
KES1 130232Z 10006KT 14/06 A3032 RMK A01 T01430062  RH  058%=      5-min Rain = 0
KES1 130233Z 10005KT 14/06 A3032 RMK A01 T01430063  RH  058%=      5-min Rain = 0
KES1 130234Z 10006KT 14/06 A3032 RMK A01 T01430063  RH  059%=      5-min Rain = 0
KES1 130235Z 10005KT 14/06 A3032 RMK A01 T01420063  RH  059%=      5-min Rain = 0
KES1 130236Z 10006KT 14/06 A3032 RMK A01 T01420063  RH  059%=      5-min Rain = 0
KES1 130237Z 10006KT 14/06 A3032 RMK A01 T01410062  RH  059%=      5-min Rain = 0
KES1 130238Z 10006KT 14/06 A3032 RMK A01 T01420063  RH  059%=      5-min Rain = 0
KES1 130239Z 10006KT 14/06 A3032 RMK A01 T01410063  RH  059%=      5-min Rain = 0
KES1 130240Z 10006KT 14/06 A3032 RMK A01 T01420063  RH  059%=      5-min Rain = 0
KES1 130241Z 10006KT 14/06 A3032 RMK A01 T01410063  RH  059%=      5-min Rain = 0
KES1 130242Z 10006KT 14/06 A3032 RMK A01 T01410063  RH  059%=      5-min Rain = 0
KES1 130243Z 10005KT 14/06 A3032 RMK A01 T01420063  RH  059%=      5-min Rain = 0
KES1 130244Z 10006KT 14/06 A3032 RMK A01 T01410063  RH  059%=      5-min Rain = 0
KES1 130245Z 10006KT 14/06 A3032 RMK A01 T01400063  RH  059%=      5-min Rain = 0
KES1 130246Z 10006KT 14/06 A3032 RMK A01 T01400063  RH  060%=      5-min Rain = 0
KES1 130247Z 10006KT 14/06 A3032 RMK A01 T01400063  RH  060%=      5-min Rain = 0
KES1 130248Z 10006KT 14/06 A3032 RMK A01 T01400063  RH  060%=      5-min Rain = 0
KES1 130249Z 10006KT 14/06 A3032 RMK A01 T01400063  RH  060%=      5-min Rain = 0
KES1 130250Z 10006KT 14/06 A3032 RMK A01 T01390063  RH  060%=      5-min Rain = 0
KES1 130251Z 10006KT 14/06 A3032 RMK A01 T01400063  RH  060%=      5-min Rain = 0
KES1 130252Z 10006KT 14/06 A3032 RMK A01 T01390063  RH  060%=      5-min Rain = 0
KES1 130253Z 10006KT 14/06 A3032 RMK A01 T01390063  RH  060%=      5-min Rain = 0
KES1 130254Z 10006KT 14/06 A3032 RMK A01 T01390063  RH  060%=      5-min Rain = 0
KES1 130255Z 10006KT 14/06 A3032 RMK A01 T01390063  RH  060%=      5-min Rain = 0
KES1 130256Z 10006KT 14/06 A3032 RMK A01 T01390063  RH  060%=      5-min Rain = 0
KES1 130257Z 11005KT 14/06 A3032 RMK A01 T01390063  RH  060%=      5-min Rain = 0
KES1 130258Z 10006KT 14/06 A3032 RMK A01 T01380063  RH  060%=      5-min Rain = 0
KES1 130259Z 10006KT 14/06 A3032 RMK A01 T01380063  RH  061%=      5-min Rain = 0
KES1 130300Z 11006KT 14/06 A3032 RMK A01 T01370063  RH  061%=      5-min Rain = 0
KES1 130301Z 11006KT 14/06 A3032 RMK A01 T01370063  RH  061%=      5-min Rain = 0
KES1 130302Z 11006KT 14/06 A3032 RMK A01 T01370063  RH  061%=      5-min Rain = 0
KES1 130303Z 11006KT 14/06 A3032 RMK A01 T01370063  RH  061%=      5-min Rain = 0
KES1 130304Z 10006KT 14/06 A3032 RMK A01 T01370064  RH  061%=      5-min Rain = 0
KES1 130305Z 10007KT 14/06 A3032 RMK A01 T01370064  RH  061%=      5-min Rain = 0
KES1 130306Z 11006KT 14/06 A3032 RMK A01 T01370064  RH  061%=      5-min Rain = 0
KES1 130307Z 10006KT 14/06 A3032 RMK A01 T01370063  RH  061%=      5-min Rain = 0
KES1 130308Z 11006KT 14/06 A3032 RMK A01 T01370064  RH  061%=      5-min Rain = 0
KES1 130309Z 11006KT 14/06 A3032 RMK A01 T01370064  RH  061%=      5-min Rain = 0
KES1 130310Z 10006KT 14/06 A3032 RMK A01 T01370064  RH  061%=      5-min Rain = 0
KES1 130311Z 11006KT 14/06 A3032 RMK A01 T01370064  RH  061%=      5-min Rain = 0
KES1 130312Z 11006KT 14/06 A3032 RMK A01 T01380064  RH  061%=      5-min Rain = 0
KES1 130313Z 11007KT 14/06 A3033 RMK A01 T01370064  RH  061%=      5-min Rain = 0
KES1 130314Z 10007KT 14/06 A3033 RMK A01 T01370064  RH  061%=      5-min Rain = 0
KES1 130315Z 10007KT 14/06 A3033 RMK A01 T01370064  RH  061%=      5-min Rain = 0
KES1 130316Z 10006KT 14/06 A3033 RMK A01 T01380064  RH  061%=      5-min Rain = 0
KES1 130317Z 10007KT 14/06 A3033 RMK A01 T01370064  RH  061%=      5-min Rain = 0
KES1 130318Z 11007KT 14/06 A3033 RMK A01 T01370064  RH  061%=      5-min Rain = 0
KES1 130319Z 11007KT 14/06 A3033 RMK A01 T01370064  RH  061%=      5-min Rain = 0
KES1 130320Z 10007KT 14/06 A3033 RMK A01 T01370064  RH  061%=      5-min Rain = 0
KES1 130321Z 10007KT 14/06 A3033 RMK A01 T01370064  RH  061%=      5-min Rain = 0
KES1 130322Z 10007KT 14/06 A3033 RMK A01 T01370064  RH  061%=      5-min Rain = 0
KES1 130323Z 10007KT 14/06 A3033 RMK A01 T01370064  RH  062%=      5-min Rain = 0
KES1 130324Z 10007KT 14/06 A3033 RMK A01 T01360064  RH  062%=      5-min Rain = 0
KES1 130325Z 10007KT 14/06 A3033 RMK A01 T01360064  RH  062%=      5-min Rain = 0
KES1 130326Z 10007KT 14/06 A3033 RMK A01 T01360064  RH  062%=      5-min Rain = 0
KES1 130327Z 09006KT 14/06 A3033 RMK A01 T01360064  RH  062%=      5-min Rain = 0
KES1 130328Z 10007KT 14/06 A3033 RMK A01 T01360064  RH  062%=      5-min Rain = 0
KES1 130329Z 10007KT 14/06 A3033 RMK A01 T01350064  RH  062%=      5-min Rain = 0
KES1 130330Z 10007KT 14/06 A3033 RMK A01 T01350064  RH  062%=      5-min Rain = 0
KES1 130331Z 10007KT 14/06 A3033 RMK A01 T01360064  RH  062%=      5-min Rain = 0
KES1 130332Z 10007KT 14/06 A3033 RMK A01 T01350064  RH  062%=      5-min Rain = 0
KES1 130333Z 10007KT 14/06 A3033 RMK A01 T01350064  RH  062%=      5-min Rain = 0
KES1 130334Z 10006KT 14/06 A3033 RMK A01 T01350064  RH  062%=      5-min Rain = 0
KES1 130335Z 10006KT 14/06 A3033 RMK A01 T01350064  RH  062%=      5-min Rain = 0
KES1 130336Z 10006KT 13/06 A3033 RMK A01 T01340064  RH  062%=      5-min Rain = 0
KES1 130337Z 10007KT 13/06 A3033 RMK A01 T01340064  RH  062%=      5-min Rain = 0
KES1 130338Z 10007KT 14/06 A3033 RMK A01 T01350064  RH  062%=      5-min Rain = 0
KES1 130339Z 10007KT 14/06 A3033 RMK A01 T01350064  RH  062%=      5-min Rain = 0
KES1 130340Z 10007KT 14/06 A3033 RMK A01 T01350064  RH  062%=      5-min Rain = 0
KES1 130341Z 10007KT 13/06 A3033 RMK A01 T01340064  RH  062%=      5-min Rain = 0
KES1 130342Z 10007KT 13/06 A3033 RMK A01 T01340064  RH  062%=      5-min Rain = 0
KES1 130343Z 10008KT 13/06 A3033 RMK A01 T01340064  RH  062%=      5-min Rain = 0
KES1 130344Z 10008KT 13/06 A3033 RMK A01 T01340064  RH  062%=      5-min Rain = 0
KES1 130345Z 10007KT 14/06 A3033 RMK A01 T01350064  RH  062%=      5-min Rain = 0
KES1 130346Z 10007KT 14/06 A3033 RMK A01 T01350064  RH  062%=      5-min Rain = 0
KES1 130347Z 10006KT 14/06 A3033 RMK A01 T01350064  RH  062%=      5-min Rain = 0
KES1 130348Z 10007KT 14/06 A3033 RMK A01 T01350063  RH  062%=      5-min Rain = 0
KES1 130349Z 10007KT 14/06 A3033 RMK A01 T01350063  RH  062%=      5-min Rain = 0
KES1 130350Z 10007KT 14/06 A3033 RMK A01 T01350063  RH  062%=      5-min Rain = 0
KES1 130351Z 10007KT 14/06 A3033 RMK A01 T01350064  RH  062%=      5-min Rain = 0
KES1 130352Z 10007KT 14/06 A3033 RMK A01 T01350063  RH  062%=      5-min Rain = 0
KES1 130353Z 10007KT 14/06 A3033 RMK A01 T01350063  RH  062%=      5-min Rain = 0
KES1 130354Z 10007KT 14/06 A3033 RMK A01 T01350063  RH  062%=      5-min Rain = 0
KES1 130355Z 10007KT 13/06 A3033 RMK A01 T01340063  RH  062%=      5-min Rain = 0
KES1 130356Z 10007KT 13/06 A3033 RMK A01 T01340063  RH  062%=      5-min Rain = 0
KES1 130357Z 10007KT 13/06 A3033 RMK A01 T01330063  RH  063%=      5-min Rain = 0
KES1 130358Z 10008KT 13/06 A3033 RMK A01 T01330063  RH  063%=      5-min Rain = 0
KES1 130359Z 11007KT 13/06 A3033 RMK A01 T01330063  RH  063%=      5-min Rain = 0
KES1 130400Z 10007KT 13/06 A3033 RMK A01 T01330064  RH  063%=      5-min Rain = 0
KES1 130401Z 10007KT 13/06 A3033 RMK A01 T01330064  RH  063%=      5-min Rain = 0
KES1 130402Z 10007KT 13/06 A3033 RMK A01 T01330064  RH  063%=      5-min Rain = 0
KES1 130403Z 10007KT 13/06 A3033 RMK A01 T01330064  RH  063%=      5-min Rain = 0
KES1 130404Z 10007KT 13/06 A3033 RMK A01 T01320064  RH  063%=      5-min Rain = 0
KES1 130405Z 10007KT 13/06 A3033 RMK A01 T01320064  RH  063%=      5-min Rain = 0
KES1 130406Z 10008KT 13/06 A3033 RMK A01 T01320064  RH  063%=      5-min Rain = 0
KES1 130407Z 11007KT 13/06 A3033 RMK A01 T01320064  RH  063%=      5-min Rain = 0
KES1 130408Z 11007KT 13/06 A3033 RMK A01 T01320064  RH  063%=      5-min Rain = 0
KES1 130409Z 11006KT 13/06 A3033 RMK A01 T01320064  RH  064%=      5-min Rain = 0
KES1 130410Z 11006KT 13/06 A3033 RMK A01 T01310064  RH  064%=      5-min Rain = 0
KES1 130411Z 11006KT 13/06 A3033 RMK A01 T01310064  RH  064%=      5-min Rain = 0
KES1 130412Z 11005KT 13/06 A3033 RMK A01 T01310064  RH  064%=      5-min Rain = 0
KES1 130413Z 11006KT 13/06 A3033 RMK A01 T01310064  RH  064%=      5-min Rain = 0
KES1 130414Z 11004KT 13/06 A3033 RMK A01 T01300064  RH  064%=      5-min Rain = 0
KES1 130415Z 11005KT 13/06 A3033 RMK A01 T01300064  RH  064%=      5-min Rain = 0
KES1 130416Z 11005KT 13/06 A3034 RMK A01 T01290064  RH  065%=      5-min Rain = 0
KES1 130417Z 11006KT 13/06 A3034 RMK A01 T01280064  RH  065%=      5-min Rain = 0
KES1 130418Z 11006KT 13/06 A3034 RMK A01 T01280064  RH  065%=      5-min Rain = 0
KES1 130419Z 11006KT 13/06 A3034 RMK A01 T01270064  RH  066%=      5-min Rain = 0
KES1 130420Z 11005KT 13/07 A3033 RMK A01 T01270065  RH  066%=      5-min Rain = 0
KES1 130421Z 11005KT 13/07 A3034 RMK A01 T01270065  RH  066%=      5-min Rain = 0
KES1 130422Z 11005KT 13/07 A3034 RMK A01 T01270065  RH  066%=      5-min Rain = 0
KES1 130423Z 11005KT 13/06 A3034 RMK A01 T01260064  RH  066%=      5-min Rain = 0
KES1 130424Z 11005KT 13/07 A3034 RMK A01 T01250065  RH  066%=      5-min Rain = 0
KES1 130425Z 11006KT 13/07 A3034 RMK A01 T01250065  RH  066%=      5-min Rain = 0
KES1 130426Z 11005KT 13/07 A3034 RMK A01 T01250065  RH  067%=      5-min Rain = 0
KES1 130427Z 11005KT 12/07 A3034 RMK A01 T01240065  RH  067%=      5-min Rain = 0
KES1 130428Z 11005KT 12/07 A3034 RMK A01 T01230065  RH  067%=      5-min Rain = 0
KES1 130429Z 11005KT 12/07 A3034 RMK A01 T01230065  RH  067%=      5-min Rain = 0
KES1 130430Z 11004KT 12/07 A3034 RMK A01 T01230065  RH  068%=      5-min Rain = 0
KES1 130431Z 12004KT 12/07 A3034 RMK A01 T01220065  RH  068%=      5-min Rain = 0
KES1 130432Z 12005KT 12/06 A3034 RMK A01 T01210064  RH  068%=      5-min Rain = 0
KES1 130433Z 11005KT 12/07 A3034 RMK A01 T01210065  RH  068%=      5-min Rain = 0
KES1 130434Z 11005KT 12/07 A3034 RMK A01 T01210065  RH  068%=      5-min Rain = 0
KES1 130435Z 11005KT 12/07 A3034 RMK A01 T01210065  RH  069%=      5-min Rain = 0
KES1 130436Z 11005KT 12/07 A3034 RMK A01 T01200065  RH  069%=      5-min Rain = 0
KES1 130437Z 11005KT 12/07 A3034 RMK A01 T01200065  RH  069%=      5-min Rain = 0
KES1 130438Z 11005KT 12/07 A3034 RMK A01 T01190065  RH  069%=      5-min Rain = 0
KES1 130439Z 11005KT 12/07 A3034 RMK A01 T01190065  RH  069%=      5-min Rain = 0
KES1 130440Z 11005KT 12/07 A3034 RMK A01 T01190065  RH  070%=      5-min Rain = 0
KES1 130441Z 11005KT 12/07 A3034 RMK A01 T01200066  RH  070%=      5-min Rain = 0
KES1 130442Z 11005KT 12/07 A3034 RMK A01 T01200066  RH  069%=      5-min Rain = 0
KES1 130443Z 11006KT 12/07 A3034 RMK A01 T01200065  RH  069%=      5-min Rain = 0
KES1 130444Z 11005KT 12/07 A3034 RMK A01 T01200066  RH  069%=      5-min Rain = 0
KES1 130445Z 11005KT 12/07 A3034 RMK A01 T01200066  RH  069%=      5-min Rain = 0
KES1 130446Z 12005KT 12/07 A3034 RMK A01 T01200066  RH  069%=      5-min Rain = 0
KES1 130447Z 12005KT 12/07 A3034 RMK A01 T01200066  RH  069%=      5-min Rain = 0
KES1 130448Z 11005KT 12/07 A3034 RMK A01 T01200066  RH  069%=      5-min Rain = 0
KES1 130449Z 12006KT 12/07 A3034 RMK A01 T01200066  RH  070%=      5-min Rain = 0
KES1 130450Z 12006KT 12/07 A3034 RMK A01 T01200066  RH  070%=      5-min Rain = 0
KES1 130451Z 12006KT 12/07 A3034 RMK A01 T01200066  RH  070%=      5-min Rain = 0
KES1 130452Z 12006KT 12/07 A3034 RMK A01 T01200067  RH  070%=      5-min Rain = 0
KES1 130453Z 12006KT 12/07 A3034 RMK A01 T01200067  RH  070%=      5-min Rain = 0
KES1 130454Z 12005KT 12/07 A3034 RMK A01 T01200067  RH  070%=      5-min Rain = 0
KES1 130455Z 12005KT 12/07 A3034 RMK A01 T01210067  RH  070%=      5-min Rain = 0
KES1 130456Z 12005KT 12/07 A3034 RMK A01 T01210067  RH  070%=      5-min Rain = 0
KES1 130457Z 12005KT 12/07 A3034 RMK A01 T01210068  RH  070%=      5-min Rain = 0
KES1 130458Z 12005KT 12/07 A3034 RMK A01 T01210068  RH  070%=      5-min Rain = 0
KES1 130459Z 13005KT 12/07 A3034 RMK A01 T01210068  RH  070%=      5-min Rain = 0

Page generated in 0.0714 seconds.